BA2605 / G-GATR 7700 Squawk Report (19th of July, 2018)

Aircraft A320 Reg No. G-GATR Age 16 years old
Model A320 Jet engines 2 First flight 27-03-02
Registered 04-12-15 Rollout 03-02 Delivered 29-05-02
Construction No. 1771 Line No. N/A Series 232
ADSHEX 406B83 Airline name British Airways Owner GECAS
Airfield based Gatwick~Surrey~G First tracked 2015-12-04 13:34:07

Flight history for G-GATR

Route Flight No Date Playback
Venezia Tessera (VCE) - Gatwick (LGW) BA2587 2018-12-09 22:06:00
Gatwick (LGW) - Venezia Tessera (VCE) BA2586 2018-12-09 19:02:00
Madeira (FNC) - Gatwick (LGW) BA2781 2018-12-09 14:46:00
Gatwick (LGW) - Madeira (FNC) BA2780 2018-12-09 11:08:00
Tenerife Sur (TFS) - Gatwick (LGW) BA2731 2018-12-08 23:07:00
Gatwick (LGW) - Tenerife Sur (TFS) BA2730 2018-12-08 19:25:00
Capodichino (NAP) - Gatwick (LGW) BA2613 2018-12-08 13:14:00
Gatwick (LGW) - Capodichino (NAP) BA2612 2018-12-08 08:36:00
Schwechat (VIE) - Gatwick (LGW) BA2659 2018-12-07 21:25:00
Gatwick (LGW) - Schwechat (VIE) BA2658 2018-12-07 19:08:00
Valencia (VLC) - Gatwick (LGW) BA2795 2018-12-07 16:08:00
Gatwick (LGW) - Valencia (VLC) BA2794 2018-12-07 12:12:00
Venezia Tessera (VCE) - Gatwick (LGW) BA2583 2018-12-06 13:40:00
Gatwick (LGW) - Venezia Tessera (VCE) BA2582 2018-12-06 10:29:00
Barcelona (BCN) - Gatwick (LGW) BA2709 2018-12-06 08:27:00
Gatwick (LGW) - Barcelona (BCN) BA2708 2018-12-05 18:09:00
Venezia Tessera (VCE) - Gatwick (LGW) BA2583 2018-12-05 13:25:00
Gatwick (LGW) - Venezia Tessera (VCE) BA2582 2018-12-05 10:22:00
Edinburgh (EDI) - Gatwick (LGW) BA2931 2018-12-05 07:21:00
Gatwick (LGW) - Edinburgh (EDI) BA2946 2018-12-04 20:22:00
Time Lat Lon Altitude Heading Speed Vertical Rate
2018-07-20 00:25:33 GMT 51.150284 -0.175610 0 130 0
2018-07-20 00:25:30 GMT 51.150284 -0.175781 0 130 0
2018-07-20 00:25:13 GMT 51.149940 -0.176802 0 130 0
2018-07-20 00:25:08 GMT 51.149944 -0.177155 0 130 0
2018-07-20 00:24:53 GMT 51.149944 -0.178013 0 130 0
2018-07-20 00:24:39 GMT 51.149769 -0.178695 0 130 0
2018-07-20 00:24:36 GMT 51.149773 -0.178871 0 130 0
2018-07-20 00:24:25 GMT 51.149597 -0.179558 0 130 0
2018-07-20 00:24:17 GMT 51.149597 -0.180068 0 130 0
2018-07-20 00:24:13 GMT 51.149597 -0.180235 0 130 0
2018-07-20 00:24:01 GMT 51.149422 -0.180931 0 130 0
2018-07-20 00:23:52 GMT 51.149254 -0.181441 0 130 0
2018-07-20 00:23:45 GMT 51.149261 -0.181789 0 130 0
2018-07-20 00:23:33 GMT 51.149086 -0.182476 0 130 0
2018-07-20 00:23:25 GMT 51.149086 -0.182648 0 130 0
2018-07-20 00:23:16 GMT 51.149086 -0.182991 0 130 0
2018-07-20 00:23:06 GMT 51.149082 -0.183334 0 130 0
2018-07-20 00:22:53 GMT 51.149082 -0.183668 0 130 0
2018-07-20 00:22:45 GMT 51.148911 -0.183849 0 130 0
2018-07-20 00:21:54 GMT 51.148911 -0.184021 0 130 0
2018-07-20 00:20:53 GMT 51.148911 -0.184021 0 130 0
2018-07-20 00:19:51 GMT 51.148911 -0.184021 0 130 0
2018-07-20 00:18:50 GMT 51.148911 -0.184021 0 130 0
2018-07-20 00:17:48 GMT 51.148911 -0.184021 0 130 0
2018-07-20 00:16:46 GMT 51.148911 -0.184021 0 130 0
2018-07-20 00:15:44 GMT 51.148911 -0.184021 0 130 0
2018-07-20 00:14:42 GMT 51.148911 -0.184021 0 130 0
2018-07-20 00:13:40 GMT 51.148911 -0.184021 0 130 0
2018-07-20 00:12:39 GMT 51.148911 -0.184021 0 130 0
2018-07-20 00:11:38 GMT 51.148911 -0.184021 0 130 0
2018-07-20 00:10:35 GMT 51.148911 -0.184021 0 130 0
2018-07-20 00:09:34 GMT 51.148911 -0.184021 0 130 0
2018-07-20 00:08:32 GMT 51.148911 -0.184021 0 130 0
2018-07-20 00:07:31 GMT 51.148911 -0.184021 0 130 0
2018-07-20 00:06:30 GMT 51.148911 -0.184021 0 130 0
2018-07-20 00:05:28 GMT 51.148911 -0.184021 0 130 0
2018-07-20 00:04:26 GMT 51.148911 -0.184021 0 130 0
2018-07-20 00:03:24 GMT 51.148911 -0.184021 0 130 0
2018-07-20 00:02:22 GMT 51.148911 -0.184021 0 130 0
2018-07-20 00:01:21 GMT 51.148911 -0.184021 0 130 0
2018-07-20 00:00:18 GMT 51.148911 -0.184021 0 130 0
2018-07-19 23:59:15 GMT 51.148911 -0.184021 0 130 0
2018-07-19 23:58:14 GMT 51.148911 -0.184021 0 130 0
2018-07-19 23:57:12 GMT 51.148911 -0.184021 0 130 0
2018-07-19 23:56:10 GMT 51.148911 -0.184021 0 130 0
2018-07-19 23:55:08 GMT 51.148911 -0.184021 0 130 0
2018-07-19 23:54:06 GMT 51.148911 -0.184021 0 130 0
2018-07-19 23:53:04 GMT 51.148911 -0.184021 0 130 0
2018-07-19 23:52:02 GMT 51.148911 -0.184021 0 130 0
2018-07-19 23:50:59 GMT 51.148911 -0.184021 0 130 0
2018-07-19 23:49:57 GMT 51.148911 -0.184021 0 130 0
2018-07-19 23:48:55 GMT 51.148911 -0.184021 0 130 0
2018-07-19 23:47:50 GMT 51.148911 -0.184021 0 130 0
2018-07-19 23:47:44 GMT 51.149082 -0.184021 0 133 0
2018-07-19 23:47:37 GMT 51.149086 -0.184021 0 133 0
2018-07-19 23:47:30 GMT 51.149082 -0.184021 0 130 0
2018-07-19 23:47:27 GMT 51.149086 -0.184021 0 133 0
2018-07-19 23:46:59 GMT 51.148911 -0.184021 0 130 0
2018-07-19 23:46:49 GMT 51.149082 -0.184021 0 130 0
2018-07-19 23:46:40 GMT 51.149086 -0.184021 0 133 0
2018-07-19 23:46:28 GMT 51.149082 -0.184021 0 130 0
2018-07-19 23:46:20 GMT 51.149086 -0.184021 0 133 0
2018-07-19 23:45:57 GMT 51.149082 -0.184021 0 130 0
2018-07-19 23:45:06 GMT 51.149086 -0.184021 0 130 0
2018-07-19 23:44:53 GMT 51.149082 -0.184021 0 130 0
2018-07-19 23:44:45 GMT 51.149086 -0.184021 0 130 0
2018-07-19 23:43:43 GMT 51.148911 -0.184021 0 130 0
2018-07-19 23:42:40 GMT 51.148911 -0.184021 0 130 0
2018-07-19 23:41:38 GMT 51.148911 -0.184021 0 133 0
2018-07-19 23:40:37 GMT 51.148911 -0.184021 0 130 0
2018-07-19 23:39:27 GMT 51.148911 -0.184021 0 130 0
2018-07-19 23:38:24 GMT 51.148911 -0.184021 0 130 0
2018-07-19 23:37:22 GMT 51.148911 -0.184021 0 130 0
2018-07-19 23:36:20 GMT 51.148911 -0.184021 0 130 0
2018-07-19 23:35:17 GMT 51.148911 -0.184021 0 130 0
2018-07-19 23:34:14 GMT 51.148911 -0.184021 0 130 0
2018-07-19 23:33:12 GMT 51.148911 -0.184021 0 130 0
2018-07-19 23:33:07 GMT 51.148911 -0.184355 0 144 0
2018-07-19 23:32:58 GMT 51.148575 -0.186424 0 130 0
2018-07-19 23:32:53 GMT 51.148224 -0.189342 0 133 0
2018-07-19 23:32:49 GMT 51.147881 -0.191221 0 130 0
2018-07-19 23:32:43 GMT 51.147175 -0.196381 50 133 640
2018-07-19 23:32:40 GMT 51.146851 -0.199127 50 132 -512
2018-07-19 23:32:31 GMT 51.145454 -0.208054 125 138 -704
2018-07-19 23:32:24 GMT 51.144241 -0.216832 250 140 -832
2018-07-19 23:32:20 GMT 51.144104 -0.218687 275 139 -640
2018-07-19 23:32:13 GMT 51.143082 -0.226593 350 139 -704
2018-07-19 23:32:10 GMT 51.142708 -0.228882 375 140 -704
2018-07-19 23:32:03 GMT 51.141499 -0.236740 475 138 -896
2018-07-19 23:31:59 GMT 51.141174 -0.239472 525 138 -768
2018-07-19 23:31:52 GMT 51.140148 -0.246887 600 140 -768
2018-07-19 23:31:49 GMT 51.139774 -0.249634 650 140 -640
2018-07-19 23:31:42 GMT 51.138748 -0.256805 725 141 -640
2018-07-19 23:31:39 GMT 51.138424 -0.259247 750 142 -512
2018-07-19 23:31:30 GMT 51.137238 -0.267309 850 140 -640
2018-07-19 23:31:27 GMT 51.136871 -0.270724 875 139 -576
2018-07-19 23:31:20 GMT 51.135864 -0.277405 975 140 -704
2018-07-19 23:31:17 GMT 51.135315 -0.281042 1,000 143 -768
2018-07-19 23:31:11 GMT 51.134838 -0.285492 1,100 144 -640
2018-07-19 23:31:08 GMT 51.134281 -0.288925 1,125 145 -640
2018-07-19 23:31:05 GMT 51.133942 -0.291509 1,150 146 -640
2018-07-19 23:31:00 GMT 51.133259 -0.296631 1,200 144 -640
2018-07-19 23:30:57 GMT 51.132935 -0.299377 1,275 145 -704
2018-07-19 23:30:54 GMT 51.132420 -0.302811 1,275 145 -704
2018-07-19 23:30:50 GMT 51.131882 -0.306281 1,325 145 -576
2018-07-19 23:30:47 GMT 51.131378 -0.309547 1,375 147 -704
2018-07-19 23:30:44 GMT 51.131195 -0.311626 1,375 147 -704
2018-07-19 23:30:40 GMT 51.130512 -0.315857 1,450 146 -960
2018-07-19 23:30:37 GMT 51.129997 -0.319824 1,500 147 -832
2018-07-19 23:30:32 GMT 51.129486 -0.324097 1,550 149 -896
2018-07-19 23:30:29 GMT 51.128998 -0.327066 1,600 149 -896
2018-07-19 23:30:26 GMT 51.128632 -0.330109 1,675 153 -704
2018-07-19 23:30:22 GMT 51.127949 -0.334244 1,725 152 -640
2018-07-19 23:30:17 GMT 51.127075 -0.340279 1,775 154 -640
2018-07-19 23:30:14 GMT 51.126755 -0.343694 1,800 158 -640
2018-07-19 23:30:11 GMT 51.126415 -0.345764 1,875 160 -576
2018-07-19 23:30:08 GMT 51.125885 -0.349855 1,850 160 -576
2018-07-19 23:30:05 GMT 51.125381 -0.353789 1,875 158 -320
2018-07-19 23:30:01 GMT 51.124878 -0.357427 1,875 159 64
2018-07-19 23:29:57 GMT 51.124191 -0.361732 1,875 159 0
2018-07-19 23:29:54 GMT 51.123856 -0.364990 1,875 159 -64
2018-07-19 23:29:51 GMT 51.123322 -0.368265 1,875 157 0
2018-07-19 23:29:45 GMT 51.122272 -0.376511 1,875 160 64
2018-07-19 23:29:39 GMT 51.121433 -0.382843 1,900 158 -128
2018-07-19 23:29:36 GMT 51.121078 -0.385041 1,875 159 192
2018-07-19 23:29:33 GMT 51.120548 -0.388489 1,875 158 -128
2018-07-19 23:29:30 GMT 51.120071 -0.391722 1,875 161 128
2018-07-19 23:29:27 GMT 51.119522 -0.394821 1,875 158 -64
2018-07-19 23:29:24 GMT 51.119011 -0.398102 1,875 159 0
2018-07-19 23:29:21 GMT 51.118362 -0.402069 1,875 159 0
2018-07-19 23:29:17 GMT 51.117477 -0.406342 1,875 159 0
2018-07-19 23:29:14 GMT 51.116638 -0.410843 1,875 160 192
2018-07-19 23:29:10 GMT 51.115940 -0.414429 1,875 159 0
2018-07-19 23:29:07 GMT 51.115242 -0.417023 1,875 159 0
2018-07-19 23:29:03 GMT 51.114033 -0.421600 1,875 158 0
2018-07-19 23:28:59 GMT 51.112518 -0.425423 1,875 157 0
2018-07-19 23:28:56 GMT 51.111282 -0.427799 1,875 159 -64
2018-07-19 23:28:53 GMT 51.109406 -0.430397 1,875 158 -192
2018-07-19 23:28:50 GMT 51.107529 -0.432624 1,875 159 0
2018-07-19 23:28:47 GMT 51.105789 -0.434480 1,875 158 -128
2018-07-19 23:28:43 GMT 51.103226 -0.437597 1,875 158 0
2018-07-19 23:28:40 GMT 51.101509 -0.439835 1,900 154 -320
2018-07-19 23:28:36 GMT 51.099106 -0.442571 1,900 157 0
2018-07-19 23:28:33 GMT 51.097412 -0.444641 1,900 156 -192
2018-07-19 23:28:30 GMT 51.095692 -0.446701 1,900 156 -128
2018-07-19 23:28:26 GMT 51.093456 -0.449448 1,925 154 -256
2018-07-19 23:28:23 GMT 51.091408 -0.452042 1,950 152 -256
2018-07-19 23:28:19 GMT 51.089497 -0.454254 1,975 153 -640
2018-07-19 23:28:14 GMT 51.087112 -0.457343 2,025 155 -1024
2018-07-19 23:28:11 GMT 51.085403 -0.459366 2,125 156 -1344
2018-07-19 23:28:08 GMT 51.084190 -0.460968 2,175 157 -1344
2018-07-19 23:28:05 GMT 51.081585 -0.464020 2,250 157 -1344
2018-07-19 23:28:02 GMT 51.079697 -0.466399 2,300 157 -1280
2018-07-19 23:27:59 GMT 51.078003 -0.468478 2,475 157 -1472
2018-07-19 23:27:55 GMT 51.075951 -0.471420 2,475 156 -1280
2018-07-19 23:27:52 GMT 51.074066 -0.473674 2,550 156 -1280
2018-07-19 23:27:49 GMT 51.072830 -0.475159 2,675 155 -1152
2018-07-19 23:27:46 GMT 51.070770 -0.478128 2,700 156 -896
2018-07-19 23:27:43 GMT 51.069260 -0.480503 2,700 156 -896
2018-07-19 23:27:40 GMT 51.067703 -0.482730 2,750 157 -704
2018-07-19 23:27:37 GMT 51.066177 -0.485153 2,775 158 -576
2018-07-19 23:27:34 GMT 51.064774 -0.487184 2,800 159 -448
2018-07-19 23:27:21 GMT 51.055527 -0.492677 2,875 161 0
2018-07-19 23:27:18 GMT 51.052917 -0.492529 2,875 160 0
2018-07-19 23:27:14 GMT 51.050022 -0.491638 2,875 160 0
2018-07-19 23:27:11 GMT 51.048477 -0.491341 2,875 160 0
2018-07-19 23:27:08 GMT 51.046249 -0.490494 2,875 160 0
2018-07-19 23:27:05 GMT 51.044174 -0.489782 2,875 160 0
2018-07-19 23:27:00 GMT 51.040058 -0.488586 2,875 161 0
2018-07-19 23:26:57 GMT 51.038177 -0.487852 2,875 161 0
2018-07-19 23:26:53 GMT 51.034927 -0.487036 2,875 161 0
2018-07-19 23:26:50 GMT 51.032845 -0.486374 2,875 161 -64
2018-07-19 23:26:47 GMT 51.030285 -0.485458 2,875 161 0
2018-07-19 23:26:43 GMT 51.027191 -0.484438 2,875 161 0
2018-07-19 23:26:18 GMT 51.008823 -0.478134 2,900 160 0
2018-07-19 23:26:15 GMT 51.007286 -0.477448 2,900 159 -64
2018-07-19 23:26:12 GMT 51.004532 -0.476049 2,900 159 0
2018-07-19 23:26:07 GMT 51.001419 -0.473674 2,925 157 -320
2018-07-19 23:26:04 GMT 50.999725 -0.471744 2,925 156 -320
2018-07-19 23:26:01 GMT 50.997650 -0.469894 2,950 153 -512
2018-07-19 23:25:57 GMT 50.994736 -0.467142 3,000 153 -960
2018-07-19 23:25:54 GMT 50.993362 -0.465583 3,075 154 -1152
2018-07-19 23:25:51 GMT 50.991459 -0.463715 3,125 153 -1280
2018-07-19 23:25:48 GMT 50.989269 -0.461655 3,175 153 -896
2018-07-19 23:25:44 GMT 50.987000 -0.459570 3,225 156 -576
2018-07-19 23:25:40 GMT 50.984802 -0.457343 3,250 159 -832
2018-07-19 23:25:37 GMT 50.982708 -0.455475 3,325 162 -896
2018-07-19 23:25:34 GMT 50.980473 -0.453186 3,325 164 -768
2018-07-19 23:25:31 GMT 50.978622 -0.451330 3,375 166 -704
2018-07-19 23:25:27 GMT 50.976189 -0.448914 3,425 168 -704
2018-07-19 23:25:24 GMT 50.974140 -0.447006 3,475 172 -448
2018-07-19 23:25:21 GMT 50.971893 -0.444649 3,475 178 -256
2018-07-19 23:25:17 GMT 50.968975 -0.442047 3,500 182 -448
2018-07-19 23:25:07 GMT 50.961273 -0.434480 3,675 194 -1536
2018-07-19 23:25:04 GMT 50.958500 -0.431900 3,700 194 -1536
2018-07-19 23:25:00 GMT 50.956127 -0.429535 3,800 194 -1280
2018-07-19 23:24:56 GMT 50.952682 -0.426407 3,900 195 -1472
2018-07-19 23:24:53 GMT 50.950104 -0.424236 4,075 197 -1600
2018-07-19 23:24:50 GMT 50.946861 -0.421143 4,075 196 -1472
2018-07-19 23:24:45 GMT 50.944256 -0.418701 4,275 197 -1600
2018-07-19 23:24:42 GMT 50.941360 -0.415996 4,325 197 -1600
2018-07-19 23:24:39 GMT 50.938934 -0.413695 4,350 196 -1600
2018-07-19 23:24:35 GMT 50.935867 -0.410800 4,450 197 -1792
2018-07-19 23:24:32 GMT 50.932434 -0.407014 4,675 198 -1664
2018-07-19 23:24:28 GMT 50.929504 -0.403748 4,650 218 -1216
2018-07-19 23:24:25 GMT 50.927635 -0.401917 4,775 202 -1536
2018-07-19 23:24:22 GMT 50.925541 -0.398941 4,800 204 -1408
2018-07-19 23:24:00 GMT 50.911995 -0.371857 5,275 221 -1408
2018-07-19 23:23:57 GMT 50.909946 -0.367203 5,375 223 -1536
2018-07-19 23:23:54 GMT 50.908218 -0.363588 5,425 225 -1600
2018-07-19 23:23:51 GMT 50.905804 -0.358963 5,475 227 -1280
2018-07-19 23:23:47 GMT 50.903427 -0.353851 5,550 231 -1152
2018-07-19 23:23:43 GMT 50.900345 -0.347480 5,675 237 -1600
2018-07-19 23:23:40 GMT 50.898262 -0.342865 5,725 238 -1216
2018-07-19 23:23:37 GMT 50.896042 -0.338349 5,800 241 -1600
2018-07-19 23:23:34 GMT 50.894676 -0.335083 5,850 244 -1792
2018-07-19 23:23:04 GMT 50.872845 -0.289307 7,000 260 -896
2018-07-19 23:23:01 GMT 50.870819 -0.284828 7,050 261 -768
2018-07-19 23:22:58 GMT 50.868935 -0.280685 7,050 263 -64
2018-07-19 23:22:55 GMT 50.866516 -0.275401 7,050 268 64
2018-07-19 23:22:52 GMT 50.864281 -0.271072 7,050 272 960
2018-07-19 23:22:49 GMT 50.861710 -0.265602 7,025 273 576
2018-07-19 23:22:46 GMT 50.859283 -0.260257 7,000 277 -256
2018-07-19 23:22:43 GMT 50.856735 -0.255127 7,000 277 0
2018-07-19 23:22:40 GMT 50.854691 -0.251007 7,000 277 0
2018-07-19 23:22:37 GMT 50.852268 -0.245819 7,000 278 0
2018-07-19 23:22:34 GMT 50.849533 -0.240363 7,000 279 0
2018-07-19 23:22:31 GMT 50.847099 -0.235062 6,975 280 -64
2018-07-19 23:22:28 GMT 50.845047 -0.230713 6,975 279 128
2018-07-19 23:22:07 GMT 50.827698 -0.194191 6,975 279 -64
2018-07-19 23:22:04 GMT 50.825317 -0.189366 6,975 280 -256
2018-07-19 23:22:01 GMT 50.822895 -0.184402 7,000 279 -256
2018-07-19 23:21:58 GMT 50.820831 -0.180235 7,000 278 -256
2018-07-19 23:21:55 GMT 50.817947 -0.173777 7,000 279 -192
2018-07-19 23:21:52 GMT 50.815353 -0.168457 7,000 278 -256
2018-07-19 23:21:48 GMT 50.812775 -0.162939 7,025 276 -64
2018-07-19 23:21:44 GMT 50.809341 -0.156036 7,025 274 0
2018-07-19 23:21:41 GMT 50.806927 -0.150909 7,025 274 -320
2018-07-19 23:21:38 GMT 50.804718 -0.145940 7,050 275 -640
2018-07-19 23:21:35 GMT 50.801804 -0.140076 7,200 280 -960
2018-07-19 23:21:32 GMT 50.799225 -0.134954 7,150 279 -1088
2018-07-19 23:21:29 GMT 50.797668 -0.131687 7,200 281 -1344
2018-07-19 23:21:26 GMT 50.794739 -0.125526 7,250 280 -1472
2018-07-19 23:21:23 GMT 50.792542 -0.120850 7,350 281 -1600
2018-07-19 23:21:03 GMT 50.775879 -0.086035 7,875 281 -1472
2018-07-19 23:21:00 GMT 50.772446 -0.078612 8,000 281 -1664
2018-07-19 23:20:56 GMT 50.770382 -0.074692 8,075 283 -1344
2018-07-19 23:20:53 GMT 50.767639 -0.068887 8,125 283 -1344
2018-07-19 23:20:50 GMT 50.765404 -0.063858 8,575 284 -1216
2018-07-19 23:20:46 GMT 50.762833 -0.058717 8,350 284 -1408
2018-07-19 23:20:43 GMT 50.759209 -0.051346 8,375 286 -1600
2018-07-19 23:20:40 GMT 50.756836 -0.046395 8,475 286 -1792
2018-07-19 23:20:37 GMT 50.755280 -0.042906 8,600 286 -1792
2018-07-19 23:20:34 GMT 50.751846 -0.035557 8,625 285 -1792
2018-07-19 23:20:31 GMT 50.750107 -0.032142 8,675 286 -1984
2018-07-19 23:20:28 GMT 50.747360 -0.026278 8,775 285 -2048
2018-07-19 23:20:25 GMT 50.744980 -0.021973 8,850 286 -1600
2018-07-19 23:20:22 GMT 50.742218 -0.016327 9,025 284 -1856
2018-07-19 23:20:18 GMT 50.738449 -0.008621 9,075 285 -1600
2018-07-19 23:20:15 GMT 50.737061 -0.005493 9,225 286 -1728
2018-07-19 23:20:12 GMT 50.733994 0.000668 9,275 289 -1792
2018-07-19 23:20:09 GMT 50.732254 0.004602 9,375 287 -1600
2018-07-19 23:19:51 GMT 50.716801 0.036545 9,675 293 -1088
2018-07-19 23:19:48 GMT 50.714241 0.041504 9,800 288 -1984
2018-07-19 23:19:45 GMT 50.711494 0.047150 9,875 293 -1856
2018-07-19 23:19:42 GMT 50.709446 0.051498 9,925 288 -1792
2018-07-19 23:19:39 GMT 50.706528 0.057678 10,200 292 -1536
2018-07-19 23:19:34 GMT 50.702728 0.065398 10,325 290 -1664
2018-07-19 23:19:31 GMT 50.699810 0.071564 10,275 290 -1664
2018-07-19 23:19:28 GMT 50.697762 0.075989 10,650 292 -1664
2018-07-19 23:19:25 GMT 50.695175 0.081507 10,425 294 -1600
2018-07-19 23:19:22 GMT 50.692612 0.086851 10,575 295 -1728
2018-07-19 23:19:19 GMT 50.690407 0.091095 10,625 298 -704
2018-07-19 23:19:16 GMT 50.687805 0.097170 10,650 295 -1600
2018-07-19 23:19:13 GMT 50.685425 0.102081 10,725 293 -1920
2018-07-19 23:19:10 GMT 50.682312 0.108304 10,825 291 -1408
2018-07-19 23:19:07 GMT 50.680260 0.112228 11,025 299 -1152
2018-07-19 23:19:04 GMT 50.677505 0.118251 10,925 298 -1152
2018-07-19 23:19:00 GMT 50.675125 0.123225 10,975 297 -1024
2018-07-19 23:18:57 GMT 50.671692 0.130463 11,050 299 -1664
2018-07-19 23:18:54 GMT 50.669769 0.134583 11,100 301 -1600
2018-07-19 23:18:51 GMT 50.667023 0.140076 11,225 299 -1728
2018-07-19 23:18:48 GMT 50.663963 0.146237 11,300 299 -1856
2018-07-19 23:18:30 GMT 50.649345 0.177117 11,900 298 -1792
2018-07-19 23:18:27 GMT 50.646606 0.182431 11,925 298 -1728
2018-07-19 23:18:24 GMT 50.644039 0.187807 12,075 301 -1472
2018-07-19 23:18:21 GMT 50.641617 0.192767 12,125 300 -1472
2018-07-19 23:18:18 GMT 50.639057 0.197754 12,175 302 -1472
2018-07-19 23:18:15 GMT 50.636673 0.202741 12,275 304 -1600
2018-07-19 23:18:12 GMT 50.634247 0.207656 12,325 305 -1600
2018-07-19 23:18:09 GMT 50.631866 0.213149 12,450 303 -1856
2018-07-19 23:18:06 GMT 50.628773 0.218984 12,500 302 -1792
2018-07-19 23:18:03 GMT 50.626007 0.224714 12,625 303 -1472
2018-07-19 23:17:59 GMT 50.622940 0.231002 12,700 303 -1344
2018-07-19 23:17:56 GMT 50.619827 0.237218 12,825 305 -1344
2018-07-19 23:17:53 GMT 50.617767 0.241699 12,800 305 -1344
2018-07-19 23:17:50 GMT 50.614838 0.248060 12,950 307 -1152
2018-07-19 23:17:47 GMT 50.612804 0.252166 12,975 308 -1280
2018-07-19 23:17:44 GMT 50.610245 0.257288 13,075 308 -1408
2018-07-19 23:17:41 GMT 50.606937 0.263969 13,175 309 -1536
2018-07-19 23:17:37 GMT 50.604565 0.269165 13,200 308 -1664
2018-07-19 23:17:08 GMT 50.575886 0.327511 14,025 310 -1728
2018-07-19 23:17:03 GMT 50.574692 0.330096 14,075 309 -1664
2018-07-19 23:17:00 GMT 50.572266 0.334866 14,200 310 -1536
2018-07-19 23:16:57 GMT 50.569557 0.340725 14,225 316 -1792
2018-07-19 23:16:54 GMT 50.565926 0.347777 14,375 312 -1536
2018-07-19 23:16:51 GMT 50.563705 0.352430 14,400 312 -1472
2018-07-19 23:16:27 GMT 50.542927 0.395285 14,975 317 -1344
2018-07-19 23:16:24 GMT 50.540367 0.401001 15,350 316 -1536
2018-07-19 23:16:20 GMT 50.536736 0.408201 15,175 316 -1728
2018-07-19 23:16:17 GMT 50.533676 0.414228 15,300 316 -1792
2018-07-19 23:16:14 GMT 50.530220 0.421415 15,325 317 -1664
2018-07-19 23:16:11 GMT 50.528320 0.425214 15,475 316 -1664
2018-07-19 23:15:38 GMT 50.498283 0.486293 16,225 322 -1792
2018-07-19 23:15:35 GMT 50.495041 0.493517 16,350 322 -1664
2018-07-19 23:15:31 GMT 50.491241 0.500890 16,450 323 -1856
2018-07-19 23:15:28 GMT 50.489365 0.504648 16,575 323 -1984
2018-07-19 23:15:25 GMT 50.485748 0.512021 16,650 323 -1984
2018-07-19 23:15:22 GMT 50.483528 0.516357 16,750 323 -2048
2018-07-19 23:14:55 GMT 50.458832 0.567314 17,600 328 -1408
2018-07-19 23:14:51 GMT 50.454201 0.576411 17,725 330 -1536
2018-07-19 23:14:48 GMT 50.452805 0.579306 17,850 331 -1600
2018-07-19 23:14:45 GMT 50.450592 0.584155 18,050 330 -1728
2018-07-19 23:14:42 GMT 50.447159 0.590804 18,025 330 -1728
2018-07-19 23:14:38 GMT 50.443359 0.598249 18,200 330 -1728
2018-07-19 23:14:35 GMT 50.440796 0.603887 18,150 330 -1728
2018-07-19 23:14:32 GMT 50.438049 0.609018 18,275 332 -1728
2018-07-19 23:14:29 GMT 50.435623 0.613972 18,325 332 -1600
2018-07-19 23:14:26 GMT 50.432739 0.619837 18,400 332 -1600
2018-07-19 23:13:58 GMT 50.405273 0.675436 19,125 336 -1920
2018-07-19 23:13:55 GMT 50.403366 0.679222 19,350 337 -1984
2018-07-19 23:13:51 GMT 50.399593 0.687165 19,400 337 -1920
2018-07-19 23:13:48 GMT 50.396847 0.692658 19,475 336 -2048
2018-07-19 23:13:45 GMT 50.393589 0.699116 19,600 337 -1856
2018-07-19 23:13:42 GMT 50.390514 0.705352 19,650 337 -1920
2018-07-19 23:13:38 GMT 50.386734 0.713244 19,775 338 -1856
2018-07-19 23:13:34 GMT 50.383804 0.718737 19,875 339 -1792
2018-07-19 23:13:31 GMT 50.380554 0.725098 19,975 339 -1664
2018-07-19 23:13:27 GMT 50.376923 0.732595 20,075 340 -1600
2018-07-19 23:13:24 GMT 50.374191 0.738108 20,175 341 -1536
2018-07-19 23:13:21 GMT 50.371628 0.743818 20,250 343 -1600
2018-07-19 23:13:18 GMT 50.368195 0.750684 20,425 344 -1664
2018-07-19 23:13:14 GMT 50.364395 0.758201 20,425 345 -1472
2018-07-19 23:13:11 GMT 50.361328 0.764218 20,550 343 -1536
2018-07-19 23:13:08 GMT 50.358215 0.770416 20,600 344 -2048
2018-07-19 23:13:04 GMT 50.354813 0.777283 20,725 345 -1728
2018-07-19 23:13:01 GMT 50.350994 0.785003 21,025 345 -1792
2018-07-19 23:12:58 GMT 50.349133 0.788789 20,900 345 -1920
2018-07-19 23:12:55 GMT 50.345875 0.795247 20,975 345 -1920
2018-07-19 23:12:52 GMT 50.344151 0.798884 21,050 344 -1856
2018-07-19 23:12:49 GMT 50.340706 0.805788 21,175 346 -1792
2018-07-19 23:12:46 GMT 50.337799 0.811615 21,275 346 -1664
2018-07-19 23:12:43 GMT 50.334869 0.817614 21,325 347 -1536
2018-07-19 23:12:39 GMT 50.330933 0.825131 21,425 348 -1664
2018-07-19 23:12:36 GMT 50.327160 0.832882 21,550 349 -1728
2018-07-19 23:12:33 GMT 50.324387 0.838575 21,625 349 -1920
2018-07-19 23:12:30 GMT 50.322502 0.842681 21,750 350 -1856
2018-07-19 23:12:27 GMT 50.319763 0.848188 21,775 348 -1792
2018-07-19 23:12:24 GMT 50.316498 0.854187 21,975 348 -2048
2018-07-19 23:12:20 GMT 50.312714 0.862065 22,025 349 -1856
2018-07-19 23:12:17 GMT 50.310150 0.867053 22,200 350 -1856
2018-07-19 23:12:14 GMT 50.306908 0.873933 22,200 352 -1664
2018-07-19 23:12:10 GMT 50.302765 0.881653 22,325 350 -1792
2018-07-19 23:12:07 GMT 50.299850 0.887652 22,425 353 -1536
2018-07-19 23:12:04 GMT 50.296432 0.895015 22,500 355 -1536
2018-07-19 23:12:01 GMT 50.294174 0.898783 22,550 354 -1472
2018-07-19 23:11:58 GMT 50.291977 0.903770 22,800 355 -1600
2018-07-19 23:11:55 GMT 50.287495 0.912904 22,725 355 -1600
2018-07-19 23:11:52 GMT 50.285431 0.916852 22,850 356 -1344
2018-07-19 23:11:49 GMT 50.282364 0.922852 22,900 356 -1408
2018-07-19 23:11:46 GMT 50.279583 0.928642 22,975 358 -1728
2018-07-19 23:11:43 GMT 50.276836 0.934358 23,100 358 -1728
2018-07-19 23:11:40 GMT 50.273949 0.939999 23,075 359 -1792
2018-07-19 23:11:36 GMT 50.270142 0.947571 23,450 358 -1408
2018-07-19 23:11:33 GMT 50.266571 0.954726 23,275 360 -1536
2018-07-19 23:11:30 GMT 50.263615 0.960784 23,350 359 -1792
2018-07-19 23:11:27 GMT 50.260208 0.967953 23,525 359 -1664
2018-07-19 23:11:23 GMT 50.256409 0.975543 23,675 359 -1856
2018-07-19 23:11:19 GMT 50.252472 0.983060 23,675 359 -1600
2018-07-19 23:11:16 GMT 50.250069 0.988027 23,775 360 -1536
2018-07-19 23:11:13 GMT 50.247482 0.993540 23,900 361 -1792
2018-07-19 23:11:10 GMT 50.244232 0.999539 23,925 362 -1792
2018-07-19 23:11:07 GMT 50.241165 1.005755 24,125 365 -1664
2018-07-19 23:11:04 GMT 50.237034 1.013637 24,100 362 -1664
2018-07-19 23:11:01 GMT 50.234802 1.018765 24,175 362 -1600
2018-07-19 23:10:58 GMT 50.232376 1.023436 24,275 364 -1472
2018-07-19 23:10:55 GMT 50.229118 1.029746 24,350 364 -1472
2018-07-19 23:10:52 GMT 50.225349 1.036946 24,975 366 -1280
2018-07-19 23:10:32 GMT 50.205284 1.076957 24,950 369 -1984
2018-07-19 23:10:29 GMT 50.202164 1.083310 25,075 367 -1792
2018-07-19 23:10:26 GMT 50.198227 1.091405 25,400 367 -1792
2018-07-19 23:10:23 GMT 50.195648 1.096183 25,200 367 -1920
2018-07-19 23:10:20 GMT 50.192902 1.101899 25,300 368 -1728
2018-07-19 23:10:17 GMT 50.190529 1.106650 25,450 369 -1600
2018-07-19 23:10:13 GMT 50.185181 1.117497 25,550 370 -2176
2018-07-19 23:10:10 GMT 50.182617 1.122268 25,825 368 -2560
2018-07-19 23:10:07 GMT 50.178818 1.129857 25,675 369 -2240
2018-07-19 23:10:03 GMT 50.174881 1.137735 25,850 366 -2880
2018-07-19 23:10:00 GMT 50.171955 1.143617 26,025 368 -2688
2018-07-19 23:09:57 GMT 50.169392 1.149111 26,050 366 -2624
2018-07-19 23:09:53 GMT 50.164738 1.158018 26,250 364 -2880
2018-07-19 23:09:50 GMT 50.161835 1.163828 26,375 363 -2624
2018-07-19 23:09:47 GMT 50.158905 1.170189 27,100 370 -1216
2018-07-19 23:09:41 GMT 50.151890 1.183777 26,750 361 -2112
2018-07-19 23:09:37 GMT 50.148468 1.190643 26,900 374 -896
2018-07-19 23:09:33 GMT 50.143837 1.199737 26,950 369 -1024
2018-07-19 23:09:30 GMT 50.141743 1.204191 27,025 368 -1216
2018-07-19 23:09:27 GMT 50.137299 1.212761 27,075 370 -1216
2018-07-19 23:09:22 GMT 50.133175 1.220819 27,150 371 -1024
2018-07-19 23:09:19 GMT 50.129745 1.227505 27,200 372 -704
2018-07-19 23:09:16 GMT 50.126659 1.234255 27,925 383 -896
2018-07-19 23:09:12 GMT 50.122192 1.242612 27,300 377 -960
2018-07-19 23:09:09 GMT 50.119770 1.247468 27,325 379 -832
2018-07-19 23:09:06 GMT 50.116184 1.254668 27,925 383 -896
2018-07-19 23:09:02 GMT 50.112411 1.262017 27,425 383 -704
2018-07-19 23:08:47 GMT 50.095421 1.296164 27,675 388 -1664
2018-07-19 23:08:44 GMT 50.091976 1.302548 27,825 389 -1920
2018-07-19 23:08:39 GMT 50.086487 1.313878 27,925 390 -1792
2018-07-19 23:08:36 GMT 50.083237 1.319733 28,100 391 -1984
2018-07-19 23:08:33 GMT 50.080627 1.325370 28,150 392 -2176
2018-07-19 23:08:30 GMT 50.076874 1.332743 28,300 393 -1600
2018-07-19 23:08:27 GMT 50.073761 1.338742 28,275 393 -1792
2018-07-19 23:08:24 GMT 50.069492 1.347310 29,250 399 -1856
2018-07-19 23:08:21 GMT 50.066574 1.352981 28,450 394 -1728
2018-07-19 23:08:18 GMT 50.063488 1.359335 28,525 396 -1664
2018-07-19 23:08:14 GMT 50.059021 1.367798 28,625 397 -1664
2018-07-19 23:08:11 GMT 50.055759 1.374479 28,750 396 -1536
2018-07-19 23:08:08 GMT 50.051788 1.381675 28,800 396 -1536
2018-07-19 23:08:05 GMT 50.048721 1.387674 28,950 397 -1536
2018-07-19 23:08:02 GMT 50.045792 1.393674 28,950 397 -1472
2018-07-19 23:07:58 GMT 50.039978 1.404988 29,075 399 -1472
2018-07-19 23:07:53 GMT 50.035492 1.413984 29,175 401 -1728
2018-07-19 23:07:50 GMT 50.030155 1.424437 29,325 399 -1728
2018-07-19 23:07:47 GMT 50.028294 1.428223 29,375 399 -1728
2018-07-19 23:07:43 GMT 50.023636 1.437474 29,550 401 -2048
2018-07-19 23:07:40 GMT 50.020054 1.444479 29,600 401 -1792
2018-07-19 23:07:37 GMT 50.016609 1.451383 29,650 401 -1856
2018-07-19 23:07:33 GMT 50.012138 1.460291 29,800 403 -1984
2018-07-19 23:07:30 GMT 50.006508 1.470906 29,975 402 -1920
2018-07-19 23:07:27 GMT 50.005096 1.473830 29,975 402 -1920
2018-07-19 23:07:24 GMT 50.001015 1.481595 30,125 403 -1920
2018-07-19 23:07:21 GMT 49.998917 1.486190 30,250 404 -1856
2018-07-19 23:07:17 GMT 49.992775 1.497704 30,375 405 -1920
2018-07-19 23:07:14 GMT 49.990028 1.503048 30,375 405 -1536
2018-07-19 23:07:11 GMT 49.986584 1.510100 30,525 407 -1728
2018-07-19 23:07:07 GMT 49.981277 1.520345 30,600 408 -1920
2018-07-19 23:07:04 GMT 49.978317 1.526015 30,750 409 -2240
2018-07-19 23:07:01 GMT 49.974747 1.533099 31,000 407 -2112
2018-07-19 23:06:57 GMT 49.970444 1.541483 30,925 408 -2176
2018-07-19 23:06:54 GMT 49.966141 1.549723 31,075 407 -2432
2018-07-19 23:06:51 GMT 49.963211 1.555433 31,200 407 -1920
2018-07-19 23:06:48 GMT 49.958954 1.563673 31,350 408 -1984
2018-07-19 23:06:44 GMT 49.955154 1.571189 31,500 407 -2112
2018-07-19 23:06:41 GMT 49.950851 1.579429 31,575 412 -2432
2018-07-19 23:06:36 GMT 49.945221 1.590560 31,750 410 -1792
2018-07-19 23:06:33 GMT 49.942265 1.596432 31,800 410 -1856
2018-07-19 23:06:30 GMT 49.936958 1.606379 32,050 416 -1792
2018-07-19 23:06:27 GMT 49.934738 1.611015 32,025 411 -2496
2018-07-19 23:06:24 GMT 49.931305 1.617737 32,075 411 -2560
2018-07-19 23:06:21 GMT 49.927185 1.625615 32,250 413 -2048
2018-07-19 23:06:17 GMT 49.921326 1.636746 32,400 410 -2432
2018-07-19 23:06:14 GMT 49.918579 1.642239 32,475 410 -2176
2018-07-19 23:06:11 GMT 49.915359 1.648469 32,650 413 -2048
2018-07-19 23:06:08 GMT 49.912609 1.654259 32,850 416 -1792
2018-07-19 23:06:04 GMT 49.905537 1.667695 32,850 413 -2368
2018-07-19 23:06:01 GMT 49.903336 1.671801 32,925 415 -1920
2018-07-19 23:05:58 GMT 49.900227 1.677939 33,050 416 -1920
2018-07-19 23:05:55 GMT 49.895416 1.687269 33,100 417 -1600
2018-07-19 23:05:52 GMT 49.893036 1.691895 33,150 418 -1920
2018-07-19 23:05:49 GMT 49.887863 1.702519 33,275 419 -1920
2018-07-19 23:05:46 GMT 49.885983 1.705776 33,550 420 -2368
2018-07-19 23:05:43 GMT 49.882050 1.713867 33,500 421 -1792
2018-07-19 23:05:40 GMT 49.877930 1.721884 33,550 420 -1984
2018-07-19 23:05:35 GMT 49.872578 1.732202 33,750 420 -1920
2018-07-19 23:05:32 GMT 49.868820 1.740249 33,800 421 -2048
2018-07-19 23:05:29 GMT 49.865570 1.746320 33,875 422 -1920
2018-07-19 23:05:25 GMT 49.861076 1.755586 34,125 423 -2112
2018-07-19 23:05:22 GMT 49.856979 1.763825 34,150 423 -2176
2018-07-19 23:05:19 GMT 49.853027 1.771039 34,250 424 -2304
2018-07-19 23:05:15 GMT 49.848557 1.780082 34,500 423 -2944
2018-07-19 23:05:12 GMT 49.844101 1.788531 34,550 423 -2816
2018-07-19 23:05:09 GMT 49.840504 1.795893 34,700 423 -2624
2018-07-19 23:05:06 GMT 49.837894 1.801015 35,025 421 -2752
2018-07-19 23:05:01 GMT 49.831375 1.813611 35,025 422 -2304
2018-07-19 23:04:57 GMT 49.827469 1.821132 35,150 422 -2176
2018-07-19 23:04:54 GMT 49.822998 1.829521 35,275 422 -1600
2018-07-19 23:04:51 GMT 49.819225 1.836573 35,425 424 -2048
2018-07-19 23:04:48 GMT 49.815269 1.843996 35,500 425 -1920
2018-07-19 23:04:44 GMT 49.810104 1.853052 35,625 423 -1984
2018-07-19 23:04:40 GMT 49.805145 1.861677 35,725 423 -1664
2018-07-19 23:04:36 GMT 49.800327 1.869532 35,850 424 -1344
2018-07-19 23:04:33 GMT 49.795158 1.877400 35,875 425 -1024
2018-07-19 23:04:29 GMT 49.788830 1.886902 35,925 425 -768
2018-07-19 23:04:26 GMT 49.785553 1.891672 35,975 426 -256
2018-07-19 23:04:23 GMT 49.781288 1.897665 35,975 427 -256
2018-07-19 23:04:19 GMT 49.774586 1.906796 35,975 428 64
2018-07-19 23:04:15 GMT 49.770439 1.912289 35,975 426 0
2018-07-19 23:04:12 GMT 49.765320 1.919341 35,975 425 64
2018-07-19 23:04:08 GMT 49.759460 1.927233 35,975 423 -64
2018-07-19 23:03:30 GMT 49.702801 2.003743 36,025 423 64
2018-07-19 23:03:26 GMT 49.695786 2.013245 36,025 425 64
2018-07-19 23:03:22 GMT 49.689102 2.022352 36,025 425 -128
2018-07-19 23:03:19 GMT 49.686321 2.026087 36,025 426 0
2018-07-19 23:03:15 GMT 49.680313 2.034475 36,025 425 -192
2018-07-19 23:03:12 GMT 49.675507 2.040710 36,025 426 0
2018-07-19 23:03:09 GMT 49.670883 2.047360 36,025 426 -192
2018-07-19 23:03:04 GMT 49.662140 2.058708 36,025 427 0
2018-07-19 23:03:01 GMT 49.658340 2.063840 36,025 426 0
2018-07-19 23:02:58 GMT 49.654587 2.069333 36,025 426 0
2018-07-19 23:02:55 GMT 49.649452 2.076045 36,050 426 0
2018-07-19 23:02:51 GMT 49.642548 2.085162 36,050 426 192
2018-07-19 23:02:48 GMT 49.638790 2.090297 36,050 427 64
2018-07-19 23:02:44 GMT 49.631927 2.099401 36,025 427 -128
2018-07-19 23:02:41 GMT 49.627625 2.105761 36,050 428 192
2018-07-19 23:02:38 GMT 49.623871 2.110387 36,025 428 -128
2018-07-19 23:02:35 GMT 49.618378 2.117759 36,025 429 0
2018-07-19 23:02:32 GMT 49.614578 2.122891 36,025 427 256
2018-07-19 23:02:29 GMT 49.608582 2.131348 36,025 427 -64
2018-07-19 23:02:25 GMT 49.603271 2.138029 36,025 427 -64
2018-07-19 23:02:22 GMT 49.597267 2.146120 36,025 427 0
2018-07-19 23:02:18 GMT 49.591587 2.153840 36,025 427 -192
2018-07-19 23:02:15 GMT 49.588486 2.157729 36,025 427 -192
2018-07-19 23:02:12 GMT 49.582321 2.166682 36,025 422 448
2018-07-19 23:02:09 GMT 49.579239 2.170306 36,000 427 -256
2018-07-19 23:02:06 GMT 49.574249 2.176955 36,025 427 -256
2018-07-19 23:02:03 GMT 49.568253 2.185051 36,000 429 192
2018-07-19 23:02:00 GMT 49.566681 2.187319 36,000 428 128
2018-07-19 23:01:57 GMT 49.561188 2.194668 36,000 428 0
2018-07-19 23:01:54 GMT 49.557083 2.200157 36,000 428 0
2018-07-19 23:01:51 GMT 49.551224 2.208252 36,000 423 -64
2018-07-19 23:01:48 GMT 49.547318 2.213894 36,000 423 0
2018-07-19 23:01:45 GMT 49.542664 2.220106 36,000 424 -64
2018-07-19 23:01:42 GMT 49.538006 2.225919 36,000 423 64
2018-07-19 23:01:38 GMT 49.531673 2.234456 36,000 423 -64
2018-07-19 23:01:34 GMT 49.526688 2.241500 36,000 424 64
2018-07-19 23:01:31 GMT 49.521881 2.247861 35,975 424 -128
2018-07-19 23:01:27 GMT 49.514496 2.258210 35,975 423 64
2018-07-19 23:01:24 GMT 49.509888 2.264000 35,975 423 0
2018-07-19 23:01:21 GMT 49.506630 2.268454 35,975 423 192
2018-07-19 23:01:18 GMT 49.500412 2.276411 35,975 423 128
2018-07-19 23:01:13 GMT 49.494232 2.284072 35,975 421 64
2018-07-19 23:01:09 GMT 49.487915 2.292023 35,975 421 192
2018-07-19 23:01:06 GMT 49.483074 2.297182 35,975 421 -192
2018-07-19 23:01:03 GMT 49.477768 2.302452 35,975 421 0
2018-07-19 23:00:58 GMT 49.469711 2.311063 35,975 421 -192
2018-07-19 23:00:55 GMT 49.463882 2.317248 35,975 422 0
2018-07-19 23:00:52 GMT 49.457840 2.323608 35,975 421 128
2018-07-19 23:00:48 GMT 49.453033 2.328379 35,975 421 64
2018-07-19 23:00:43 GMT 49.441734 2.340236 35,975 421 -192
2018-07-19 23:00:40 GMT 49.439827 2.342092 35,975 421 -64
2018-07-19 23:00:37 GMT 49.434708 2.347808 35,975 421 -64
2018-07-19 23:00:34 GMT 49.429539 2.352782 35,975 422 -192
2018-07-19 23:00:29 GMT 49.419064 2.363723 35,975 422 64
2018-07-19 23:00:26 GMT 49.415817 2.367554 35,975 422 0
2018-07-19 23:00:23 GMT 49.410645 2.372483 35,975 422 0
2018-07-19 23:00:20 GMT 49.406525 2.377343 36,000 421 0
2018-07-19 23:00:17 GMT 49.399326 2.384684 36,000 421 -128
2018-07-19 23:00:14 GMT 49.395721 2.388118 36,000 422 128
2018-07-19 23:00:11 GMT 49.389725 2.394456 36,000 422 -320
2018-07-19 23:00:08 GMT 49.385422 2.399104 36,000 422 0
2018-07-19 23:00:03 GMT 49.376678 2.408189 36,000 424 0
2018-07-19 22:59:58 GMT 49.368927 2.416269 36,000 422 0
2018-07-19 22:59:53 GMT 49.360519 2.424880 36,000 422 -320
2018-07-19 22:59:50 GMT 49.355057 2.430364 36,000 422 -320
2018-07-19 22:59:47 GMT 49.351097 2.434845 36,000 422 64
2018-07-19 22:59:43 GMT 49.344223 2.441711 36,000 423 128
2018-07-19 22:59:40 GMT 49.337357 2.449036 36,000 422 -64
2018-07-19 22:59:37 GMT 49.333420 2.452839 36,000 423 192
2018-07-19 22:59:34 GMT 49.328934 2.457487 36,000 423 0
2018-07-19 22:59:31 GMT 49.324142 2.462817 36,000 423 0
2018-07-19 22:59:28 GMT 49.318138 2.468960 36,000 424 0
2018-07-19 22:59:24 GMT 49.310394 2.477065 36,000 424 0
2018-07-19 22:59:21 GMT 49.306458 2.480797 36,000 424 -64
2018-07-19 22:59:17 GMT 49.300964 2.486854 36,000 424 0
2018-07-19 22:59:14 GMT 49.293747 2.494186 36,000 423 0
2018-07-19 22:59:11 GMT 49.289276 2.498522 36,000 423 0
2018-07-19 22:59:08 GMT 49.285355 2.502629 36,000 424 0
2018-07-19 22:59:05 GMT 49.281548 2.506907 36,000 424 0
2018-07-19 22:59:02 GMT 49.275558 2.512911 36,000 423 0
2018-07-19 22:58:59 GMT 49.270935 2.517911 36,000 423 128
2018-07-19 22:58:56 GMT 49.265259 2.523757 36,000 423 128
2018-07-19 22:58:53 GMT 49.259262 2.529954 36,000 423 0
2018-07-19 22:58:50 GMT 49.256516 2.532701 36,000 423 128
2018-07-19 22:58:46 GMT 49.247910 2.541433 36,000 424 -64
2018-07-19 22:58:40 GMT 49.237602 2.551864 36,000 423 -64
2018-07-19 22:58:37 GMT 49.234344 2.555333 36,000 423 0
2018-07-19 22:58:34 GMT 49.227997 2.561857 36,000 423 0
2018-07-19 22:58:30 GMT 49.222660 2.567331 36,000 423 0
2018-07-19 22:58:26 GMT 49.215118 2.575065 36,000 423 0
2018-07-19 22:58:23 GMT 49.209999 2.580558 36,000 423 64
2018-07-19 22:58:20 GMT 49.205856 2.584678 36,000 423 0
2018-07-19 22:58:16 GMT 49.198639 2.592051 36,000 423 0
2018-07-19 22:58:13 GMT 49.193848 2.597069 36,000 423 64
2018-07-19 22:58:10 GMT 49.189362 2.601647 36,000 423 192
2018-07-19 22:58:06 GMT 49.181488 2.609887 36,000 423 -64
2018-07-19 22:58:03 GMT 49.176853 2.614891 36,000 424 -64
2018-07-19 22:57:59 GMT 49.169312 2.622263 36,000 424 0
2018-07-19 22:57:55 GMT 49.163631 2.628118 36,000 424 0
2018-07-19 22:57:51 GMT 49.155579 2.636719 36,000 424 128
2018-07-19 22:57:48 GMT 49.152134 2.639754 35,975 422 0
2018-07-19 22:57:44 GMT 49.145615 2.646476 36,000 422 -64
2018-07-19 22:57:40 GMT 49.137726 2.654536 36,000 423 64
2018-07-19 22:57:37 GMT 49.133606 2.658836 36,000 422 0
2018-07-19 22:57:34 GMT 49.129120 2.663480 35,975 423 -64
2018-07-19 22:57:30 GMT 49.121567 2.671509 36,000 422 64
2018-07-19 22:57:27 GMT 49.117451 2.675460 36,000 423 -128
2018-07-19 22:57:23 GMT 49.111446 2.681676 36,000 422 0
2018-07-19 22:57:20 GMT 49.105766 2.687314 36,000 421 64
2018-07-19 22:57:17 GMT 49.099960 2.693481 36,000 421 -64
2018-07-19 22:57:12 GMT 49.091522 2.702131 36,000 421 -256
2018-07-19 22:57:09 GMT 49.086044 2.707566 36,000 422 0
2018-07-19 22:57:06 GMT 49.079514 2.714274 36,000 422 -192
2018-07-19 22:57:03 GMT 49.077091 2.716876 36,000 421 -128
2018-07-19 22:56:59 GMT 49.069550 2.724393 36,000 422 -192
2018-07-19 22:56:56 GMT 49.066315 2.727849 36,000 422 -128
2018-07-19 22:56:53 GMT 49.060986 2.733355 36,000 422 -64
2018-07-19 22:56:50 GMT 49.053772 2.740737 36,025 422 128
2018-07-19 22:56:47 GMT 49.051346 2.743131 36,000 422 0
2018-07-19 22:56:44 GMT 49.045715 2.748976 36,025 423 64
2018-07-19 22:56:41 GMT 49.041245 2.753448 36,025 423 -64
2018-07-19 22:56:37 GMT 49.033844 2.761471 36,025 423 0
2018-07-19 22:56:33 GMT 49.028214 2.766965 36,025 424 0
2018-07-19 22:56:29 GMT 49.018936 2.776442 36,025 423 0
2018-07-19 22:56:26 GMT 49.016525 2.778818 36,025 424 64
2018-07-19 22:56:23 GMT 49.010849 2.784673 36,025 423 192
2018-07-19 22:56:20 GMT 49.006577 2.788978 36,025 423 0
2018-07-19 22:56:17 GMT 49.000748 2.795298 36,025 423 192
2018-07-19 22:56:14 GMT 48.993156 2.802670 36,025 423 -64
2018-07-19 22:56:11 GMT 48.990784 2.805128 36,025 423 64
2018-07-19 22:56:08 GMT 48.985107 2.810951 36,025 423 -64
2018-07-19 22:56:05 GMT 48.981171 2.815035 36,025 424 128
2018-07-19 22:56:02 GMT 48.975842 2.820378 36,025 424 0
2018-07-19 22:55:59 GMT 48.971375 2.824824 36,025 424 0
2018-07-19 22:55:55 GMT 48.964142 2.832219 36,025 424 320
2018-07-19 22:55:51 GMT 48.957642 2.838909 36,025 423 -256
2018-07-19 22:55:48 GMT 48.953358 2.843002 36,025 423 64
2018-07-19 22:55:45 GMT 48.947525 2.849192 36,025 423 -256
2018-07-19 22:55:42 GMT 48.943405 2.853487 36,025 425 64
2018-07-19 22:55:39 GMT 48.939110 2.857819 36,025 423 128
2018-07-19 22:55:36 GMT 48.932556 2.864333 36,025 423 0
2018-07-19 22:55:32 GMT 48.925007 2.872057 36,025 423 -128
2018-07-19 22:55:29 GMT 48.922630 2.874587 36,025 423 -64
2018-07-19 22:55:26 GMT 48.914906 2.882321 36,050 423 128
2018-07-19 22:55:23 GMT 48.909737 2.887525 36,050 424 0
2018-07-19 22:55:19 GMT 48.905640 2.891587 36,025 424 -128
2018-07-19 22:55:15 GMT 48.898052 2.899306 36,025 424 -128
2018-07-19 22:55:12 GMT 48.893627 2.903788 36,025 424 -128
2018-07-19 22:55:08 GMT 48.887100 2.910321 36,025 425 128
2018-07-19 22:55:05 GMT 48.881245 2.916147 36,025 424 -192
2018-07-19 22:55:02 GMT 48.875568 2.921857 36,025 424 64
2018-07-19 22:54:58 GMT 48.868195 2.929406 36,025 424 -64
2018-07-19 22:54:54 GMT 48.864254 2.933350 36,025 424 128
2018-07-19 22:54:51 GMT 48.856522 2.941237 36,025 425 -128
2018-07-19 22:54:47 GMT 48.851360 2.946360 36,025 425 0
2018-07-19 22:54:44 GMT 48.843979 2.954266 36,025 425 64
2018-07-19 22:54:40 GMT 48.839859 2.958069 36,025 425 -64
2018-07-19 22:54:37 GMT 48.836277 2.961972 36,025 424 192
2018-07-19 22:54:34 GMT 48.831108 2.966959 36,025 424 0
2018-07-19 22:54:31 GMT 48.825806 2.972647 36,025 424 0
2018-07-19 22:54:27 GMT 48.818588 2.979536 36,000 424 0
2018-07-19 22:54:24 GMT 48.813766 2.984619 36,025 424 256
2018-07-19 22:54:21 GMT 48.808483 2.989799 36,000 424 128
2018-07-19 22:54:16 GMT 48.799175 2.999051 36,000 424 64
2018-07-19 22:54:12 GMT 48.793167 3.005050 36,000 424 -64
2018-07-19 22:54:09 GMT 48.787537 3.010747 36,000 423 64
2018-07-19 22:54:03 GMT 48.778275 3.020012 36,000 424 64
2018-07-19 22:53:59 GMT 48.770870 3.027890 36,000 424 0
2018-07-19 22:53:56 GMT 48.766727 3.031865 36,000 423 128
2018-07-19 22:53:52 GMT 48.760208 3.038370 35,975 423 128
2018-07-19 22:53:49 GMT 48.756088 3.042649 35,975 422 0
2018-07-19 22:53:45 GMT 48.747177 3.051742 35,950 421 -64
2018-07-19 22:53:42 GMT 48.743080 3.055717 35,950 422 128
2018-07-19 22:53:39 GMT 48.739975 3.058636 35,950 422 192
2018-07-19 22:53:34 GMT 48.730545 3.068566 35,950 421 64
2018-07-19 22:53:29 GMT 48.722782 3.076316 35,950 421 64
2018-07-19 22:53:25 GMT 48.716125 3.083355 35,950 420 192
2018-07-19 22:53:22 GMT 48.710957 3.088315 35,925 420 -128
2018-07-19 22:53:19 GMT 48.705963 3.093144 35,925 420 -192
2018-07-19 22:53:15 GMT 48.697723 3.101736 35,925 420 0
2018-07-19 22:53:12 GMT 48.694481 3.104650 35,950 420 -64
2018-07-19 22:53:09 GMT 48.688980 3.110680 35,950 419 0
2018-07-19 22:53:01 GMT 48.676117 3.123216 35,950 420 -128
2018-07-19 22:52:58 GMT 48.671814 3.127794 35,950 419 0
2018-07-19 22:52:53 GMT 48.662914 3.136380 35,950 420 -128
2018-07-19 22:52:50 GMT 48.658260 3.141584 35,950 420 -64
2018-07-19 22:52:47 GMT 48.654648 3.144625 35,950 420 -128
2018-07-19 22:52:44 GMT 48.648972 3.150330 35,950 420 64
2018-07-19 22:52:40 GMT 48.641968 3.157654 35,950 421 -64
2018-07-19 22:52:37 GMT 48.636616 3.162834 35,950 421 -64
2018-07-19 22:52:33 GMT 48.631302 3.168147 35,950 421 0
2018-07-19 22:52:27 GMT 48.620834 3.178807 35,950 421 0
2018-07-19 22:52:22 GMT 48.612408 3.187047 35,975 421 0
2018-07-19 22:52:19 GMT 48.607800 3.192034 35,950 422 0
2018-07-19 22:52:15 GMT 48.601959 3.197655 35,975 423 0
2018-07-19 22:52:11 GMT 48.595093 3.204698 35,975 423 -64
2018-07-19 22:52:08 GMT 48.588913 3.210895 35,975 422 -128
2018-07-19 22:52:05 GMT 48.585129 3.214513 35,975 422 -192
2018-07-19 22:52:02 GMT 48.578609 3.221379 35,975 422 -192
2018-07-19 22:51:58 GMT 48.569870 3.229628 35,975 424 -128
2018-07-19 22:51:53 GMT 48.566071 3.233361 35,975 424 0
2018-07-19 22:51:48 GMT 48.557335 3.242123 36,000 424 0
2018-07-19 22:51:45 GMT 48.552017 3.247446 36,000 426 -128
2018-07-19 22:51:37 GMT 48.539658 3.259629 36,000 426 -320
2018-07-19 22:51:33 GMT 48.531738 3.267517 36,000 425 64
2018-07-19 22:51:30 GMT 48.526062 3.273222 36,000 425 0
2018-07-19 22:51:26 GMT 48.521622 3.277658 36,000 426 64
2018-07-19 22:51:23 GMT 48.516312 3.283011 36,025 427 0
2018-07-19 22:51:20 GMT 48.510132 3.289208 36,025 429 64
2018-07-19 22:51:17 GMT 48.503754 3.295392 36,025 427 0
2018-07-19 22:51:14 GMT 48.500519 3.298645 36,025 428 0
2018-07-19 22:51:11 GMT 48.496033 3.303082 36,025 428 128
2018-07-19 22:51:08 GMT 48.490719 3.308403 36,000 429 0
2018-07-19 22:51:05 GMT 48.486252 3.313028 36,000 429 0
2018-07-19 22:51:02 GMT 48.481110 3.317871 36,025 428 -64
2018-07-19 22:50:59 GMT 48.476120 3.323153 36,000 428 -64
2018-07-19 22:50:56 GMT 48.471680 3.327629 36,000 428 128
2018-07-19 22:50:51 GMT 48.463257 3.335548 36,000 429 64
2018-07-19 22:50:47 GMT 48.455887 3.343083 36,000 431 192
2018-07-19 22:50:41 GMT 48.445934 3.352854 36,000 429 64
2018-07-19 22:50:38 GMT 48.440258 3.358564 36,000 429 192
2018-07-19 22:50:35 GMT 48.435425 3.363366 36,000 428 128
2018-07-19 22:50:30 GMT 48.427876 3.370707 36,000 426 0
2018-07-19 22:50:26 GMT 48.420319 3.378085 36,000 426 0
2018-07-19 22:50:20 GMT 48.409859 3.388776 36,000 425 0
2018-07-19 22:50:15 GMT 48.402466 3.396113 36,000 427 0
2018-07-19 22:50:11 GMT 48.396973 3.401607 36,000 427 0
2018-07-19 22:50:07 GMT 48.390472 3.408297 36,000 427 0
2018-07-19 22:50:04 GMT 48.383930 3.415013 36,000 427 0
2018-07-19 22:50:01 GMT 48.379120 3.419847 36,000 427 0
2018-07-19 22:49:58 GMT 48.375000 3.424072 36,000 427 64
2018-07-19 22:49:54 GMT 48.367310 3.432360 36,000 427 -512
2018-07-19 22:49:51 GMT 48.362980 3.436119 36,000 427 -128
2018-07-19 22:49:48 GMT 48.357487 3.441973 36,000 426 192
2018-07-19 22:49:43 GMT 48.350647 3.449355 36,000 426 64
2018-07-19 22:49:40 GMT 48.344639 3.455200 36,000 427 -128
2018-07-19 22:49:37 GMT 48.338104 3.461891 36,000 427 -128
2018-07-19 22:49:33 GMT 48.334167 3.465623 36,000 428 0
2018-07-19 22:49:30 GMT 48.328159 3.472186 36,000 428 0
2018-07-19 22:49:26 GMT 48.320946 3.479052 36,000 427 0
2018-07-19 22:49:21 GMT 48.314072 3.486046 36,000 428 192
2018-07-19 22:49:18 GMT 48.308235 3.491773 36,000 427 -128
2018-07-19 22:49:14 GMT 48.299809 3.500013 36,000 428 128
2018-07-19 22:49:11 GMT 48.297409 3.502244 36,000 428 0
2018-07-19 22:49:08 GMT 48.292454 3.507024 36,000 427 0
2018-07-19 22:49:05 GMT 48.285751 3.513529 36,000 427 -128
2018-07-19 22:49:00 GMT 48.277359 3.520907 36,000 427 0
2018-07-19 22:48:57 GMT 48.272343 3.525383 35,975 427 -128
2018-07-19 22:48:53 GMT 48.264816 3.531893 35,975 425 -768
2018-07-19 22:48:49 GMT 48.258636 3.537386 35,975 426 0
2018-07-19 22:48:42 GMT 48.244553 3.549740 35,975 424 256
2018-07-19 22:48:36 GMT 48.236126 3.557474 35,975 425 -64
2018-07-19 22:48:32 GMT 48.229614 3.562951 36,000 424 256
2018-07-19 22:48:26 GMT 48.218994 3.572436 36,000 424 192
2018-07-19 22:48:21 GMT 48.210754 3.579808 36,000 424 -256
2018-07-19 22:48:17 GMT 48.203339 3.586332 35,975 426 -64
2018-07-19 22:48:11 GMT 48.193577 3.594553 36,000 426 0
2018-07-19 22:48:08 GMT 48.186722 3.600769 36,000 426 -576
2018-07-19 22:48:03 GMT 48.178307 3.608141 36,000 426 -128
2018-07-19 22:48:00 GMT 48.173813 3.611896 36,000 426 0
2018-07-19 22:47:56 GMT 48.164749 3.619995 36,000 428 576
2018-07-19 22:47:53 GMT 48.162338 3.622019 36,000 425 640
2018-07-19 22:47:50 GMT 48.156334 3.627319 35,975 428 0
2018-07-19 22:47:45 GMT 48.147209 3.635277 35,975 427 -256
2018-07-19 22:47:39 GMT 48.136925 3.644362 35,975 427 -256
2018-07-19 22:47:34 GMT 48.128174 3.652405 36,000 426 -192
2018-07-19 22:47:29 GMT 48.119930 3.659644 36,000 426 256
2018-07-19 22:47:24 GMT 48.111179 3.667180 36,000 425 0
2018-07-19 22:47:19 GMT 48.102081 3.674927 36,000 426 64
2018-07-19 22:47:13 GMT 48.092793 3.683167 36,000 424 0
2018-07-19 22:47:09 GMT 48.083714 3.691054 36,000 425 64
2018-07-19 22:47:03 GMT 48.074963 3.698590 36,000 425 128
2018-07-19 22:47:00 GMT 48.069283 3.703590 36,000 426 -128
2018-07-19 22:46:56 GMT 48.062439 3.709576 36,000 426 0
2018-07-19 22:46:52 GMT 48.055737 3.715562 35,975 427 -192
2018-07-19 22:46:47 GMT 48.045959 3.724022 35,975 426 0
2018-07-19 22:46:43 GMT 48.039070 3.730211 35,975 426 0
2018-07-19 22:46:40 GMT 48.033253 3.735492 35,975 426 -64
2018-07-19 22:46:36 GMT 48.028244 3.739815 35,975 426 128
2018-07-19 22:46:32 GMT 48.021381 3.745422 35,975 426 0
2018-07-19 22:46:29 GMT 48.015381 3.750938 35,975 425 0
2018-07-19 22:46:26 GMT 48.010254 3.755264 35,975 420 256
2018-07-19 22:46:22 GMT 48.003891 3.760757 35,975 423 512
2018-07-19 22:46:19 GMT 47.997345 3.766594 35,950 421 256
2018-07-19 22:46:15 GMT 47.990330 3.772606 35,950 420 64
2018-07-19 22:46:11 GMT 47.985168 3.777374 35,950 420 -192
2018-07-19 22:46:08 GMT 47.979492 3.782043 35,950 420 0
2018-07-19 22:46:05 GMT 47.974365 3.786644 35,950 420 0
2018-07-19 22:46:01 GMT 47.966995 3.793030 35,950 419 0
2018-07-19 22:45:58 GMT 47.960815 3.798312 35,950 419 -128
2018-07-19 22:45:55 GMT 47.956696 3.802094 35,925 420 64
2018-07-19 22:45:51 GMT 47.950516 3.807449 35,925 421 -448
2018-07-19 22:45:48 GMT 47.944477 3.812608 35,925 421 64
2018-07-19 22:45:45 GMT 47.940380 3.816341 35,925 422 0
2018-07-19 22:45:42 GMT 47.935547 3.820633 35,925 422 256
2018-07-19 22:45:39 GMT 47.930603 3.824615 35,925 422 256
2018-07-19 22:45:36 GMT 47.924057 3.830246 35,925 420 0
2018-07-19 22:45:33 GMT 47.919758 3.834017 35,925 421 0
2018-07-19 22:45:30 GMT 47.915314 3.838142 35,925 419 -192
2018-07-19 22:45:26 GMT 47.906570 3.845558 35,925 421 -64
2018-07-19 22:45:23 GMT 47.901741 3.849792 35,925 422 -128
2018-07-19 22:45:20 GMT 47.898296 3.852750 35,925 421 -192
2018-07-19 22:45:15 GMT 47.889038 3.861008 35,950 422 -192
2018-07-19 22:45:12 GMT 47.884750 3.864793 35,950 422 -64
2018-07-19 22:45:09 GMT 47.879581 3.869019 35,950 422 0
2018-07-19 22:45:05 GMT 47.870682 3.876938 35,975 422 -64
2018-07-19 22:45:02 GMT 47.866379 3.880577 35,975 429 0
2018-07-19 22:44:59 GMT 47.862076 3.884491 35,975 423 -128
2018-07-19 22:44:52 GMT 47.848206 3.896164 35,975 426 0
2018-07-19 22:44:49 GMT 47.845272 3.899090 35,975 425 0
2018-07-19 22:44:43 GMT 47.833237 3.909210 35,975 426 -192
2018-07-19 22:44:38 GMT 47.826744 3.915217 36,000 426 -128
2018-07-19 22:44:34 GMT 47.818817 3.922119 36,000 427 0
2018-07-19 22:44:31 GMT 47.813339 3.926556 36,000 427 64
2018-07-19 22:44:28 GMT 47.809570 3.930153 36,000 427 64
2018-07-19 22:44:23 GMT 47.799419 3.938599 36,000 428 64
2018-07-19 22:44:20 GMT 47.795471 3.942032 36,000 428 0
2018-07-19 22:44:17 GMT 47.790852 3.946134 36,000 429 128
2018-07-19 22:44:14 GMT 47.784012 3.951979 36,000 429 -128
2018-07-19 22:44:10 GMT 47.777115 3.957825 36,025 429 -64
2018-07-19 22:44:06 GMT 47.771622 3.962631 36,000 428 -256
2018-07-19 22:44:02 GMT 47.763885 3.969292 36,025 429 64
2018-07-19 22:43:59 GMT 47.759949 3.972931 36,025 430 0
2018-07-19 22:43:55 GMT 47.752396 3.979111 36,025 429 -128
2018-07-19 22:43:52 GMT 47.746902 3.983917 36,025 429 0
2018-07-19 22:43:49 GMT 47.741230 3.988671 36,025 430 64
2018-07-19 22:43:46 GMT 47.736107 3.993178 36,025 430 -256
2018-07-19 22:43:42 GMT 47.729233 3.999367 36,025 431 0
2018-07-19 22:43:38 GMT 47.723583 4.003812 36,025 430 0
2018-07-19 22:43:31 GMT 47.709293 4.016348 36,025 432 128
2018-07-19 22:43:28 GMT 47.705200 4.019623 36,025 429 -64
2018-07-19 22:43:24 GMT 47.699516 4.024588 36,025 431 0
2018-07-19 22:43:21 GMT 47.692657 4.030266 36,025 433 -64
2018-07-19 22:43:18 GMT 47.687321 4.034870 36,025 433 -64
2018-07-19 22:43:14 GMT 47.681168 4.040016 36,025 432 -128
2018-07-19 22:43:11 GMT 47.675171 4.045166 36,025 432 256
2018-07-19 22:43:08 GMT 47.669819 4.049659 36,025 433 0
2018-07-19 22:43:04 GMT 47.663673 4.055152 36,000 432 0
2018-07-19 22:43:01 GMT 47.659531 4.058533 36,000 433 0
2018-07-19 22:42:57 GMT 47.651802 4.065294 36,000 432 0
2018-07-19 22:42:54 GMT 47.645798 4.070435 36,000 432 -192
2018-07-19 22:42:51 GMT 47.641846 4.074211 36,000 431 0
2018-07-19 22:42:47 GMT 47.633972 4.080734 36,000 431 -256
2018-07-19 22:42:41 GMT 47.623810 4.089317 36,000 432 0
2018-07-19 22:42:37 GMT 47.615768 4.096351 36,000 431 64
2018-07-19 22:42:31 GMT 47.605957 4.104561 35,975 430 -192
2018-07-19 22:42:26 GMT 47.597580 4.112114 35,975 431 704
2018-07-19 22:42:19 GMT 47.584351 4.123306 36,000 429 -192
2018-07-19 22:42:16 GMT 47.579365 4.127549 36,000 429 -192
2018-07-19 22:42:11 GMT 47.572151 4.133747 36,000 427 64
2018-07-19 22:42:08 GMT 47.565811 4.139099 36,000 428 -128
2018-07-19 22:42:05 GMT 47.560135 4.144249 36,000 428 -128
2018-07-19 22:42:01 GMT 47.553955 4.149742 36,000 428 -256
2018-07-19 22:41:58 GMT 47.549480 4.153466 36,000 428 -256
2018-07-19 22:41:55 GMT 47.542313 4.159311 36,000 429 0
2018-07-19 22:41:50 GMT 47.534409 4.166016 36,000 429 -192
2018-07-19 22:41:47 GMT 47.529419 4.170341 36,000 429 -64
2018-07-19 22:41:44 GMT 47.524433 4.174946 36,000 430 128
2018-07-19 22:41:39 GMT 47.514999 4.182701 36,000 430 -64
2018-07-19 22:41:36 GMT 47.510513 4.186478 36,000 429 0
2018-07-19 22:41:33 GMT 47.506233 4.190228 36,000 429 -64
2018-07-19 22:41:29 GMT 47.499203 4.196425 36,000 429 448
2018-07-19 22:41:26 GMT 47.491653 4.202614 36,000 429 -256
2018-07-19 22:41:22 GMT 47.486664 4.206871 36,000 429 -64
2018-07-19 22:41:17 GMT 47.478069 4.214102 36,025 428 128
2018-07-19 22:41:13 GMT 47.470184 4.220604 36,025 429 0
2018-07-19 22:41:07 GMT 47.457306 4.231567 36,000 429 -192
2018-07-19 22:41:03 GMT 47.450790 4.237272 36,025 430 64
2018-07-19 22:40:57 GMT 47.442215 4.244499 36,000 431 0
2018-07-19 22:40:53 GMT 47.436871 4.248962 36,000 431 128
2018-07-19 22:40:50 GMT 47.430542 4.254250 36,000 431 -192
2018-07-19 22:40:47 GMT 47.424362 4.259605 36,000 430 128
2018-07-19 22:40:44 GMT 47.418716 4.264386 36,000 430 -64
2018-07-19 22:40:40 GMT 47.413010 4.269356 36,000 430 0
2018-07-19 22:40:37 GMT 47.407883 4.273476 36,025 430 -64
2018-07-19 22:40:34 GMT 47.401016 4.279518 36,025 429 0
2018-07-19 22:40:31 GMT 47.396046 4.283612 36,025 430 0
2018-07-19 22:40:26 GMT 47.387466 4.291191 36,025 431 0
2018-07-19 22:40:23 GMT 47.382450 4.295443 36,025 431 128
2018-07-19 22:40:20 GMT 47.377167 4.299774 36,000 431 128
2018-07-19 22:40:16 GMT 47.370117 4.305611 36,000 431 -128
2018-07-19 22:40:13 GMT 47.364807 4.310021 36,000 431 -128
2018-07-19 22:40:07 GMT 47.355358 4.318120 36,000 431 320
2018-07-19 22:40:03 GMT 47.346603 4.325515 36,000 431 128
2018-07-19 22:39:59 GMT 47.340229 4.330796 36,000 432 0
2018-07-19 22:39:54 GMT 47.333012 4.336994 35,975 430 0
2018-07-19 22:39:51 GMT 47.327377 4.341783 35,975 430 -128
2018-07-19 22:39:48 GMT 47.322025 4.346290 35,975 430 -64
2018-07-19 22:39:44 GMT 47.315369 4.352097 35,975 430 -64
2018-07-19 22:39:41 GMT 47.310387 4.356431 35,975 430 0
2018-07-19 22:39:38 GMT 47.304016 4.361366 35,975 430 64
2018-07-19 22:39:34 GMT 47.296463 4.367889 35,975 429 -64
2018-07-19 22:39:31 GMT 47.292160 4.371323 35,975 429 0
2018-07-19 22:39:28 GMT 47.286179 4.376502 35,975 429 0
2018-07-19 22:39:25 GMT 47.280827 4.380939 35,950 429 -64
2018-07-19 22:39:22 GMT 47.276047 4.384918 35,975 428 192
2018-07-19 22:39:17 GMT 47.266769 4.392982 35,950 428 -128
2018-07-19 22:39:12 GMT 47.259228 4.399109 35,975 426 128
2018-07-19 22:39:08 GMT 47.251511 4.405655 35,950 427 0
2018-07-19 22:39:05 GMT 47.246330 4.409954 35,950 428 0
2018-07-19 22:39:01 GMT 47.239304 4.415941 35,950 428 0
2018-07-19 22:38:58 GMT 47.232285 4.421791 35,950 428 64
2018-07-19 22:38:54 GMT 47.225739 4.427284 35,950 427 192
2018-07-19 22:38:51 GMT 47.222309 4.430589 35,975 426 0
2018-07-19 22:38:45 GMT 47.211823 4.439507 35,975 425 -64
2018-07-19 22:38:42 GMT 47.207367 4.443054 35,975 425 192
2018-07-19 22:38:39 GMT 47.201202 4.448090 36,000 427 0
2018-07-19 22:38:36 GMT 47.195869 4.452562 35,975 427 0
2018-07-19 22:38:33 GMT 47.190536 4.457016 35,975 427 0
2018-07-19 22:38:29 GMT 47.184044 4.462492 36,000 428 64
2018-07-19 22:38:26 GMT 47.177853 4.467773 36,000 427 -256
2018-07-19 22:38:23 GMT 47.173553 4.471436 36,000 427 0
2018-07-19 22:38:20 GMT 47.169426 4.475027 36,000 427 -64
2018-07-19 22:38:16 GMT 47.161011 4.481873 36,000 428 -192
2018-07-19 22:38:13 GMT 47.155693 4.486366 36,000 428 0
2018-07-19 22:38:10 GMT 47.151085 4.490662 36,000 429 0
2018-07-19 22:38:05 GMT 47.142151 4.497871 36,000 431 -128
2018-07-19 22:38:02 GMT 47.138378 4.501296 36,000 431 -192
2018-07-19 22:37:59 GMT 47.133041 4.505424 36,000 431 0
2018-07-19 22:37:53 GMT 47.121525 4.515170 36,025 431 -64
2018-07-19 22:37:50 GMT 47.115379 4.520522 36,025 431 -192
2018-07-19 22:37:47 GMT 47.112633 4.522705 36,025 432 -64
2018-07-19 22:37:44 GMT 47.105759 4.528564 36,000 432 0
2018-07-19 22:37:41 GMT 47.099552 4.533551 36,025 432 -64
2018-07-19 22:37:38 GMT 47.097153 4.535980 36,000 432 64
2018-07-19 22:37:35 GMT 47.089264 4.542495 36,025 432 0
2018-07-19 22:37:31 GMT 47.084976 4.545937 36,025 432 128
2018-07-19 22:37:28 GMT 47.079304 4.550875 36,025 432 192
2018-07-19 22:37:24 GMT 47.071247 4.557425 36,025 432 192
2018-07-19 22:37:21 GMT 47.067307 4.560699 36,000 432 0
2018-07-19 22:37:18 GMT 47.061287 4.566017 36,025 432 -128
2018-07-19 22:37:14 GMT 47.053894 4.572029 36,000 433 64
2018-07-19 22:37:10 GMT 47.046204 4.578341 36,000 433 0
2018-07-19 22:37:05 GMT 47.039337 4.584045 36,000 433 -192
2018-07-19 22:37:01 GMT 47.033478 4.588989 36,000 432 64
2018-07-19 22:36:57 GMT 47.027481 4.594002 35,975 433 64
2018-07-19 22:36:54 GMT 47.019058 4.601212 36,000 432 64
2018-07-19 22:36:51 GMT 47.015121 4.604301 36,000 432 64
2018-07-19 22:36:48 GMT 47.008591 4.609610 36,000 432 128
2018-07-19 22:36:45 GMT 47.004822 4.612679 35,975 433 0
2018-07-19 22:36:42 GMT 46.998276 4.618172 35,975 432 -64
2018-07-19 22:36:39 GMT 46.990574 4.624540 35,975 432 128
2018-07-19 22:36:33 GMT 46.984055 4.630033 35,975 432 128
2018-07-19 22:36:30 GMT 46.979076 4.634118 35,975 431 0
2018-07-19 22:36:27 GMT 46.972370 4.639822 35,975 430 64
2018-07-19 22:36:23 GMT 46.966553 4.644814 35,975 430 -64
2018-07-19 22:36:20 GMT 46.961060 4.649071 35,975 430 64
2018-07-19 22:36:16 GMT 46.954880 4.654221 35,975 430 0
2018-07-19 22:36:13 GMT 46.948864 4.659400 35,975 430 64
2018-07-19 22:36:10 GMT 46.942657 4.664177 35,975 430 128
2018-07-19 22:36:06 GMT 46.937347 4.668640 35,950 429 0
2018-07-19 22:36:02 GMT 46.930847 4.674330 35,950 429 0
2018-07-19 22:35:59 GMT 46.925678 4.678415 35,950 429 -64
2018-07-19 22:35:56 GMT 46.919163 4.683767 35,950 429 0
2018-07-19 22:35:52 GMT 46.911072 4.690475 35,950 429 0
2018-07-19 22:35:49 GMT 46.908508 4.692535 35,950 429 64
2018-07-19 22:35:45 GMT 46.900963 4.699191 35,950 429 -64
2018-07-19 22:35:41 GMT 46.894955 4.703839 35,950 430 128
2018-07-19 22:35:38 GMT 46.889465 4.708466 35,950 429 -64
2018-07-19 22:35:35 GMT 46.883270 4.713628 35,950 429 0
2018-07-19 22:35:31 GMT 46.877453 4.718417 35,950 429 -192
2018-07-19 22:35:28 GMT 46.871246 4.723572 35,950 428 0
2018-07-19 22:35:24 GMT 46.863533 4.729958 35,950 429 0
2018-07-19 22:35:20 GMT 46.859436 4.733528 35,950 428 0
2018-07-19 22:35:17 GMT 46.853577 4.738189 35,950 428 128
2018-07-19 22:35:14 GMT 46.846867 4.744034 35,950 428 0
2018-07-19 22:35:09 GMT 46.839188 4.750214 35,950 428 -128
2018-07-19 22:35:06 GMT 46.832993 4.755363 35,950 428 -128
2018-07-19 22:35:02 GMT 46.825405 4.761681 35,950 428 -64
2018-07-19 22:34:59 GMT 46.822845 4.763947 35,950 428 0
2018-07-19 22:34:56 GMT 46.816654 4.769096 35,975 428 64
2018-07-19 22:34:53 GMT 46.812557 4.772324 35,975 431 -128
2018-07-19 22:34:49 GMT 46.805344 4.778366 35,975 429 192
2018-07-19 22:34:45 GMT 46.798313 4.784340 35,975 430 0
2018-07-19 22:34:38 GMT 46.786102 4.794326 35,975 429 0
2018-07-19 22:34:34 GMT 46.777542 4.801360 35,975 430 -128
2018-07-19 22:34:31 GMT 46.774109 4.804241 35,975 431 -128
2018-07-19 22:34:27 GMT 46.768250 4.809064 35,975 431 192
2018-07-19 22:34:24 GMT 46.762096 4.814209 35,975 431 0
2018-07-19 22:34:21 GMT 46.756603 4.818672 35,975 431 0
2018-07-19 22:34:18 GMT 46.753006 4.821792 36,000 432 -256
2018-07-19 22:34:14 GMT 46.746140 4.827285 36,000 432 -192
2018-07-19 22:34:11 GMT 46.739098 4.833092 36,000 432 0
2018-07-19 22:34:08 GMT 46.735142 4.836388 36,000 432 -128
2018-07-19 22:34:04 GMT 46.728951 4.841331 36,000 432 -64
2018-07-19 22:34:01 GMT 46.722248 4.847031 36,000 433 -320
2018-07-19 22:33:58 GMT 46.718334 4.850601 36,000 433 0
2018-07-19 22:33:55 GMT 46.712982 4.854584 36,000 433 -64
2018-07-19 22:33:51 GMT 46.704044 4.861931 36,000 433 -192
2018-07-19 22:33:48 GMT 46.699947 4.865364 36,000 433 -64
2018-07-19 22:33:45 GMT 46.694458 4.869690 36,000 433 0
2018-07-19 22:33:42 GMT 46.692036 4.871750 36,000 434 -64
2018-07-19 22:33:39 GMT 46.686401 4.876523 36,000 434 -64
2018-07-19 22:33:36 GMT 46.680908 4.880810 36,000 434 -64
2018-07-19 22:33:33 GMT 46.675739 4.885139 36,000 434 128
2018-07-19 22:33:30 GMT 46.668900 4.890976 36,000 433 64
2018-07-19 22:33:25 GMT 46.661499 4.896955 36,000 433 64
2018-07-19 22:33:22 GMT 46.656006 4.901242 36,000 433 0
2018-07-19 22:33:18 GMT 46.648270 4.907606 36,025 434 0
2018-07-19 22:33:15 GMT 46.644318 4.911232 36,025 433 0
2018-07-19 22:33:12 GMT 46.640030 4.914841 36,025 434 0
2018-07-19 22:33:09 GMT 46.634033 4.919262 36,025 433 -192
2018-07-19 22:33:06 GMT 46.629044 4.923416 36,025 433 0
2018-07-19 22:33:03 GMT 46.624924 4.927033 36,025 434 128
2018-07-19 22:32:59 GMT 46.617226 4.933205 36,025 434 -64
2018-07-19 22:32:56 GMT 46.612244 4.937325 36,025 434 0
2018-07-19 22:32:53 GMT 46.607262 4.941582 36,025 434 -64
2018-07-19 22:32:49 GMT 46.599884 4.947599 36,025 434 0
2018-07-19 22:32:46 GMT 46.593670 4.952431 36,025 434 -192
2018-07-19 22:32:43 GMT 46.589401 4.956040 36,025 434 -128
2018-07-19 22:32:39 GMT 46.582031 4.962044 36,025 433 -256
2018-07-19 22:32:35 GMT 46.573933 4.968567 36,025 434 0
2018-07-19 22:32:31 GMT 46.568985 4.972988 36,025 434 128
2018-07-19 22:32:28 GMT 46.564682 4.976271 36,025 434 -64
2018-07-19 22:32:23 GMT 46.555069 4.983975 36,025 434 -64
2018-07-19 22:32:19 GMT 46.546978 4.990677 36,025 434 128
2018-07-19 22:32:14 GMT 46.538773 4.997373 36,025 435 -64
2018-07-19 22:32:11 GMT 46.536346 4.999449 36,025 435 64
2018-07-19 22:32:08 GMT 46.529480 5.004942 36,025 435 64
2018-07-19 22:32:03 GMT 46.520233 5.012512 36,000 434 192
2018-07-19 22:32:00 GMT 46.516800 5.015594 36,000 434 0
2018-07-19 22:31:57 GMT 46.511642 5.019859 36,000 434 64
2018-07-19 22:31:54 GMT 46.506290 5.023842 36,000 434 192
2018-07-19 22:31:51 GMT 46.500984 5.028099 36,000 433 0
2018-07-19 22:31:47 GMT 46.494141 5.033592 36,000 433 64
2018-07-19 22:31:44 GMT 46.488274 5.038399 36,000 433 64
2018-07-19 22:31:41 GMT 46.483292 5.042390 36,000 433 -64
2018-07-19 22:31:38 GMT 46.477474 5.047531 36,000 433 0
2018-07-19 22:31:34 GMT 46.471657 5.052132 36,000 433 0
2018-07-19 22:31:31 GMT 46.465805 5.056792 36,000 433 64
2018-07-19 22:31:28 GMT 46.459972 5.061607 36,000 432 128
2018-07-19 22:31:23 GMT 46.453781 5.066551 36,000 432 128
2018-07-19 22:31:20 GMT 46.447586 5.071530 35,975 432 64
2018-07-19 22:31:17 GMT 46.442276 5.076153 35,975 429 0
2018-07-19 22:31:13 GMT 46.436275 5.080833 35,975 431 0
2018-07-19 22:31:09 GMT 46.428223 5.087340 35,975 430 -64
2018-07-19 22:31:06 GMT 46.424103 5.090957 35,975 431 128
2018-07-19 22:31:03 GMT 46.418243 5.095379 35,975 431 64
2018-07-19 22:31:00 GMT 46.413094 5.100060 35,975 430 128
2018-07-19 22:30:56 GMT 46.405739 5.105690 35,975 431 0
2018-07-19 22:30:52 GMT 46.400757 5.110016 35,975 429 0
2018-07-19 22:30:49 GMT 46.394897 5.114605 35,975 429 64
2018-07-19 22:30:46 GMT 46.388901 5.119629 35,975 430 64
2018-07-19 22:30:43 GMT 46.383911 5.123916 35,975 430 64
2018-07-19 22:30:38 GMT 46.376038 5.130272 35,975 431 -128
2018-07-19 22:30:35 GMT 46.371368 5.134032 35,975 430 -64
2018-07-19 22:30:32 GMT 46.365704 5.138306 35,975 430 0
2018-07-19 22:30:29 GMT 46.359882 5.142975 35,975 430 0
2018-07-19 22:30:26 GMT 46.353180 5.148468 35,975 429 0
2018-07-19 22:30:22 GMT 46.348389 5.152588 35,975 428 -64
2018-07-19 22:30:19 GMT 46.342567 5.157532 35,975 429 0
2018-07-19 22:30:15 GMT 46.336700 5.162201 35,975 431 -64
2018-07-19 22:30:12 GMT 46.331207 5.166458 35,975 430 -192
2018-07-19 22:30:08 GMT 46.323166 5.172819 35,975 430 0
2018-07-19 22:30:04 GMT 46.318680 5.176570 35,975 430 192
2018-07-19 22:30:01 GMT 46.313705 5.180534 35,975 430 -192
2018-07-19 22:29:58 GMT 46.307877 5.185212 35,975 430 -64
2018-07-19 22:29:55 GMT 46.301182 5.190697 35,975 430 0
2018-07-19 22:29:51 GMT 46.296387 5.194817 35,975 430 -192
2018-07-19 22:29:48 GMT 46.290520 5.199623 35,975 431 -64
2018-07-19 22:29:45 GMT 46.285213 5.203537 35,975 430 0
2018-07-19 22:29:41 GMT 46.278885 5.208687 35,975 429 -64
2018-07-19 22:29:37 GMT 46.271805 5.214352 35,975 431 -64
2018-07-19 22:29:34 GMT 46.266312 5.218841 35,975 429 -64
2018-07-19 22:29:31 GMT 46.261520 5.222763 35,975 431 -128
2018-07-19 22:29:27 GMT 46.254501 5.228420 35,975 431 -64
2018-07-19 22:29:23 GMT 46.247452 5.234114 35,975 431 -64
2018-07-19 22:29:20 GMT 46.244343 5.236839 35,975 431 64
2018-07-19 22:29:16 GMT 46.235775 5.243706 35,975 431 -64
2018-07-19 22:29:13 GMT 46.231293 5.247311 35,975 431 0
2018-07-19 22:29:10 GMT 46.227036 5.250594 35,975 431 -64
2018-07-19 22:29:06 GMT 46.219620 5.256422 35,975 431 0
2018-07-19 22:29:03 GMT 46.213806 5.261245 35,975 431 0
2018-07-19 22:29:00 GMT 46.209660 5.264648 35,975 431 -64
2018-07-19 22:28:56 GMT 46.202633 5.270348 35,975 432 128
2018-07-19 22:28:53 GMT 46.196114 5.275635 35,975 432 128
2018-07-19 22:28:50 GMT 46.192841 5.278060 35,975 430 0
2018-07-19 22:28:45 GMT 46.184616 5.284767 35,975 432 -64
2018-07-19 22:28:42 GMT 46.178097 5.289917 35,975 430 0
2018-07-19 22:28:39 GMT 46.174164 5.293133 35,975 430 64
2018-07-19 22:28:35 GMT 46.166931 5.299162 35,975 430 64
2018-07-19 22:28:32 GMT 46.161621 5.303114 35,975 430 -128
2018-07-19 22:28:29 GMT 46.154404 5.308937 35,975 431 0
2018-07-19 22:28:25 GMT 46.149765 5.312694 35,975 431 0
2018-07-19 22:28:21 GMT 46.143089 5.318069 35,975 431 0
2018-07-19 22:28:18 GMT 46.138458 5.321804 35,975 431 -256
2018-07-19 22:28:13 GMT 46.129356 5.329056 35,975 432 0
2018-07-19 22:28:10 GMT 46.122665 5.334532 35,975 431 -192
2018-07-19 22:28:07 GMT 46.119579 5.337090 35,975 432 0
2018-07-19 22:28:04 GMT 46.115112 5.340523 35,975 432 64
2018-07-19 22:28:01 GMT 46.109108 5.345535 35,975 432 64
2018-07-19 22:27:58 GMT 46.103752 5.349655 35,975 432 -64
2018-07-19 22:27:53 GMT 46.095188 5.356659 35,975 432 0
2018-07-19 22:27:49 GMT 46.088486 5.361809 35,975 433 64
2018-07-19 22:27:43 GMT 46.076294 5.371578 35,975 433 64
2018-07-19 22:27:39 GMT 46.072678 5.374860 35,975 433 128
2018-07-19 22:27:36 GMT 46.067909 5.378632 35,975 433 64
2018-07-19 22:27:33 GMT 46.062553 5.382614 35,975 432 64
2018-07-19 22:27:30 GMT 46.055851 5.388245 35,975 433 -192
2018-07-19 22:27:27 GMT 46.051575 5.391541 35,975 433 0
2018-07-19 22:27:21 GMT 46.040771 5.400249 35,975 432 0
2018-07-19 22:27:18 GMT 46.036625 5.403557 35,975 432 64
2018-07-19 22:27:15 GMT 46.031830 5.407471 35,975 432 64
2018-07-19 22:27:11 GMT 46.024796 5.412977 35,975 432 64
2018-07-19 22:27:08 GMT 46.019306 5.417633 35,975 432 128
2018-07-19 22:27:03 GMT 46.010742 5.424299 35,975 431 0
2018-07-19 22:27:00 GMT 46.006760 5.427380 35,975 431 -64
2018-07-19 22:26:57 GMT 46.000595 5.432396 35,975 432 -64
2018-07-19 22:26:54 GMT 45.996643 5.435486 35,950 432 64
2018-07-19 22:26:51 GMT 45.991516 5.439949 35,975 433 192
2018-07-19 22:26:48 GMT 45.983093 5.446271 35,950 432 0
2018-07-19 22:26:45 GMT 45.981033 5.448147 35,950 432 -128
2018-07-19 22:26:41 GMT 45.973312 5.454369 35,975 432 -64
2018-07-19 22:26:38 GMT 45.969032 5.457458 35,975 432 -128
2018-07-19 22:26:34 GMT 45.957687 5.466368 35,975 432 128
2018-07-19 22:26:31 GMT 45.955811 5.467896 35,975 432 0
2018-07-19 22:26:28 GMT 45.951004 5.471660 35,975 432 -128
2018-07-19 22:26:25 GMT 45.947021 5.475144 35,975 432 0
2018-07-19 22:26:21 GMT 45.938446 5.481628 35,975 432 -128
2018-07-19 22:26:18 GMT 45.934158 5.485058 35,975 432 64
2018-07-19 22:26:15 GMT 45.929535 5.488676 35,975 432 -128
2018-07-19 22:26:10 GMT 45.920929 5.495375 35,975 432 0
2018-07-19 22:26:07 GMT 45.915451 5.499825 35,975 432 64
2018-07-19 22:26:04 GMT 45.911499 5.502945 35,975 432 0
2018-07-19 22:26:01 GMT 45.904999 5.508103 35,975 432 0
2018-07-19 22:25:58 GMT 45.899139 5.512524 35,950 433 0
2018-07-19 22:25:55 GMT 45.895714 5.515274 35,975 433 -64
2018-07-19 22:25:52 GMT 45.891266 5.518888 35,950 433 0
2018-07-19 22:25:47 GMT 45.880966 5.527463 35,975 433 0
2018-07-19 22:25:44 GMT 45.875973 5.532097 35,975 433 0
2018-07-19 22:25:40 GMT 45.868759 5.538963 35,975 434 0
2018-07-19 22:25:37 GMT 45.864799 5.542946 35,975 434 0
2018-07-19 22:25:33 GMT 45.860004 5.547752 35,975 434 0
2018-07-19 22:25:29 GMT 45.852448 5.555264 35,975 434 256
2018-07-19 22:25:26 GMT 45.849014 5.558747 35,975 434 0
2018-07-19 22:25:23 GMT 45.843704 5.564039 35,975 434 -64
2018-07-19 22:25:18 GMT 45.835613 5.572266 35,975 435 192
2018-07-19 22:25:15 GMT 45.830978 5.576901 35,975 434 0
2018-07-19 22:25:12 GMT 45.826347 5.581398 35,975 434 128
2018-07-19 22:25:07 GMT 45.818806 5.589294 35,975 434 -128
2018-07-19 22:25:04 GMT 45.813641 5.594444 35,975 434 64
2018-07-19 22:25:01 GMT 45.809731 5.598015 35,975 434 -256
2018-07-19 22:24:56 GMT 45.801117 5.606598 35,975 433 -192
2018-07-19 22:24:53 GMT 45.797012 5.610731 35,975 434 -64
2018-07-19 22:24:50 GMT 45.792042 5.615524 36,000 434 -64
2018-07-19 22:24:47 GMT 45.787399 5.620311 36,000 434 64
2018-07-19 22:24:43 GMT 45.781052 5.626511 36,000 434 0
2018-07-19 22:24:39 GMT 45.775223 5.632704 36,000 434 -64
2018-07-19 22:24:36 GMT 45.769180 5.638733 36,000 435 192
2018-07-19 22:24:33 GMT 45.764923 5.642685 36,000 435 0
2018-07-19 22:24:30 GMT 45.760944 5.646629 36,025 435 64
2018-07-19 22:24:27 GMT 45.755310 5.652260 36,025 435 -64
2018-07-19 22:24:23 GMT 45.748795 5.658783 36,025 436 64
2018-07-19 22:24:20 GMT 45.745163 5.662766 36,025 436 -192
2018-07-19 22:24:16 GMT 45.738644 5.668945 36,025 436 -64
2018-07-19 22:24:13 GMT 45.732128 5.675468 36,025 436 -128
2018-07-19 22:24:09 GMT 45.728165 5.679396 36,025 437 320
2018-07-19 22:24:05 GMT 45.721329 5.686111 36,025 437 -64
2018-07-19 22:24:02 GMT 45.716675 5.690717 36,025 437 0
2018-07-19 22:23:59 GMT 45.711685 5.695674 36,025 437 -64
2018-07-19 22:23:55 GMT 45.705322 5.701904 36,025 437 64
2018-07-19 22:23:52 GMT 45.699692 5.707732 36,025 438 -64
2018-07-19 22:23:49 GMT 45.695389 5.712154 36,025 438 128
2018-07-19 22:23:45 GMT 45.688370 5.719208 36,025 438 128
2018-07-19 22:23:42 GMT 45.684219 5.723140 36,025 438 0
2018-07-19 22:23:37 GMT 45.676311 5.730881 36,025 438 0
2018-07-19 22:23:34 GMT 45.672546 5.734863 36,025 437 0
2018-07-19 22:23:31 GMT 45.667740 5.739285 36,025 437 0
2018-07-19 22:23:26 GMT 45.659832 5.747566 36,025 437 -128
2018-07-19 22:23:23 GMT 45.653137 5.754089 36,025 438 -64
2018-07-19 22:23:20 GMT 45.649357 5.757523 36,025 437 -64
2018-07-19 22:23:17 GMT 45.644562 5.762329 36,025 437 0
2018-07-19 22:23:14 GMT 45.638927 5.767960 36,025 437 64
2018-07-19 22:23:10 GMT 45.633774 5.773114 36,025 437 0
2018-07-19 22:23:07 GMT 45.628601 5.778072 36,025 437 64
2018-07-19 22:23:04 GMT 45.624481 5.782359 36,025 437 0
2018-07-19 22:23:01 GMT 45.618820 5.787735 36,025 437 0
2018-07-19 22:22:58 GMT 45.614536 5.792336 36,025 436 -64
2018-07-19 22:22:54 GMT 45.608185 5.798169 36,025 436 0
2018-07-19 22:22:50 GMT 45.601318 5.805203 36,000 437 -64
2018-07-19 22:22:45 GMT 45.593582 5.812571 36,000 436 64
2018-07-19 22:22:42 GMT 45.588932 5.817261 36,000 436 0
2018-07-19 22:22:39 GMT 45.583626 5.822548 36,000 436 0
2018-07-19 22:22:36 GMT 45.578644 5.827354 36,000 435 0
2018-07-19 22:22:32 GMT 45.573166 5.832869 36,000 436 64
2018-07-19 22:22:29 GMT 45.567993 5.837827 36,025 436 128
2018-07-19 22:22:26 GMT 45.561142 5.844727 36,000 436 0
2018-07-19 22:22:22 GMT 45.557369 5.848297 36,000 436 64
2018-07-19 22:22:19 GMT 45.552567 5.853435 36,000 436 -64
2018-07-19 22:22:16 GMT 45.547760 5.857924 36,000 436 -192
2018-07-19 22:22:13 GMT 45.542770 5.862906 36,000 436 64
2018-07-19 22:22:10 GMT 45.537632 5.867905 36,000 436 0
2018-07-19 22:22:07 GMT 45.532837 5.873043 36,000 436 64
2018-07-19 22:22:04 GMT 45.528717 5.876639 36,000 436 256
2018-07-19 22:22:01 GMT 45.524231 5.881413 36,000 435 0
2018-07-19 22:21:58 GMT 45.518730 5.886595 36,000 435 192
2018-07-19 22:21:55 GMT 45.514122 5.891418 36,000 435 128
2018-07-19 22:21:52 GMT 45.509838 5.895371 36,000 435 0
2018-07-19 22:21:48 GMT 45.503277 5.901869 36,000 435 64
2018-07-19 22:21:45 GMT 45.497272 5.907697 36,000 435 192
2018-07-19 22:21:41 GMT 45.490952 5.913914 36,000 435 128
2018-07-19 22:21:38 GMT 45.486282 5.918688 36,000 434 -64
2018-07-19 22:21:35 GMT 45.481476 5.923331 36,000 435 0
2018-07-19 22:21:31 GMT 45.476669 5.927974 36,000 435 0
2018-07-19 22:21:28 GMT 45.470352 5.934317 36,000 435 128
2018-07-19 22:21:25 GMT 45.466408 5.938244 36,000 435 128
2018-07-19 22:21:21 GMT 45.460541 5.943737 36,000 435 0
2018-07-19 22:21:18 GMT 45.455421 5.948896 36,000 435 0
2018-07-19 22:21:14 GMT 45.449413 5.954925 36,000 435 64
2018-07-19 22:21:10 GMT 45.442520 5.961587 35,975 434 -64
2018-07-19 22:21:06 GMT 45.436707 5.967787 35,975 434 -64
2018-07-19 22:21:03 GMT 45.431725 5.972275 35,975 434 0
2018-07-19 22:20:59 GMT 45.425171 5.978786 35,975 434 -64
2018-07-19 22:20:55 GMT 45.418854 5.984933 35,975 433 128
2018-07-19 22:20:52 GMT 45.413712 5.990295 35,975 433 -64
2018-07-19 22:20:48 GMT 45.406815 5.996966 35,975 433 128
2018-07-19 22:20:44 GMT 45.400814 6.002488 35,975 433 -192
2018-07-19 22:20:39 GMT 45.393925 6.009521 35,975 433 64
2018-07-19 22:20:36 GMT 45.388641 6.014491 35,975 433 0
2018-07-19 22:20:33 GMT 45.383823 6.019302 35,975 433 0
2018-07-19 22:20:28 GMT 45.376968 6.026001 36,000 433 0
2018-07-19 22:20:25 GMT 45.371109 6.031625 36,000 432 -64
2018-07-19 22:20:22 GMT 45.367172 6.035418 36,000 433 -64
2018-07-19 22:20:18 GMT 45.361153 6.041275 35,975 433 0
2018-07-19 22:20:15 GMT 45.355499 6.047124 36,000 433 64
2018-07-19 22:20:12 GMT 45.351562 6.050720 36,000 433 64
2018-07-19 22:20:08 GMT 45.344330 6.057717 36,000 433 -192
2018-07-19 22:20:05 GMT 45.337643 6.064453 35,975 433 -64
2018-07-19 22:20:02 GMT 45.334534 6.067330 35,975 433 -64
2018-07-19 22:19:58 GMT 45.328720 6.072824 35,975 434 -64
2018-07-19 22:19:54 GMT 45.322540 6.079036 35,975 434 -64
2018-07-19 22:19:51 GMT 45.317207 6.084483 36,000 434 0
2018-07-19 22:19:47 GMT 45.311371 6.089826 36,000 434 -192
2018-07-19 22:19:44 GMT 45.306061 6.094993 36,000 434 128
2018-07-19 22:19:40 GMT 45.300568 6.100289 36,000 433 64
2018-07-19 22:19:37 GMT 45.296120 6.104781 36,000 433 64
2018-07-19 22:19:34 GMT 45.289928 6.110810 36,000 434 0
2018-07-19 22:19:31 GMT 45.284435 6.116102 35,975 434 0
2018-07-19 22:19:26 GMT 45.278244 6.122131 35,975 434 -128
2018-07-19 22:19:23 GMT 45.273422 6.126905 35,975 434 128
2018-07-19 22:19:20 GMT 45.269165 6.131025 35,975 435 -128
2018-07-19 22:19:17 GMT 45.264835 6.135127 35,975 435 -128
2018-07-19 22:19:13 GMT 45.257996 6.141881 35,975 434 64
2018-07-19 22:19:10 GMT 45.253849 6.145980 35,975 435 64
2018-07-19 22:19:07 GMT 45.248703 6.150970 35,975 434 -64
2018-07-19 22:19:04 GMT 45.242523 6.156987 36,000 434 0
2018-07-19 22:19:01 GMT 45.238266 6.161237 36,000 434 -128
2018-07-19 22:18:57 GMT 45.232574 6.166747 36,000 433 64
2018-07-19 22:18:54 GMT 45.228653 6.170524 36,000 433 128
2018-07-19 22:18:51 GMT 45.222473 6.176728 36,000 433 0
2018-07-19 22:18:47 GMT 45.216793 6.182221 36,000 433 0
2018-07-19 22:18:43 GMT 45.209763 6.189054 36,000 434 64
2018-07-19 22:18:39 GMT 45.203571 6.195418 36,000 434 64
2018-07-19 22:18:36 GMT 45.199291 6.199170 36,000 434 -128
2018-07-19 22:18:32 GMT 45.193100 6.205333 36,000 434 64
2018-07-19 22:18:29 GMT 45.189148 6.209172 36,000 434 -64
2018-07-19 22:18:26 GMT 45.183834 6.214644 36,000 435 -128
2018-07-19 22:18:23 GMT 45.178848 6.219112 36,000 435 0
2018-07-19 22:18:20 GMT 45.174408 6.223363 36,000 436 64
2018-07-19 22:18:15 GMT 45.166843 6.231124 36,000 436 0
2018-07-19 22:18:12 GMT 45.161163 6.236617 36,000 436 0
2018-07-19 22:18:09 GMT 45.158066 6.239384 36,000 436 0
2018-07-19 22:18:04 GMT 45.149506 6.247624 36,000 436 0
2018-07-19 22:18:01 GMT 45.144684 6.252226 36,000 436 -128
2018-07-19 22:17:58 GMT 45.139702 6.257183 36,000 436 0
2018-07-19 22:17:54 GMT 45.134216 6.262534 36,000 436 0
2018-07-19 22:17:51 GMT 45.128906 6.267831 36,000 436 64
2018-07-19 22:17:47 GMT 45.122898 6.273327 36,000 436 64
2018-07-19 22:17:44 GMT 45.118240 6.277967 35,975 436 0
2018-07-19 22:17:41 GMT 45.114330 6.281768 35,975 436 -64
2018-07-19 22:17:37 GMT 45.107956 6.288132 35,975 436 0
2018-07-19 22:17:33 GMT 45.101765 6.294094 35,975 435 128
2018-07-19 22:17:30 GMT 45.096455 6.299252 35,975 435 0
2018-07-19 22:17:26 GMT 45.089939 6.305281 35,975 434 64
2018-07-19 22:17:22 GMT 45.083237 6.311779 35,975 434 0
2018-07-19 22:17:19 GMT 45.078415 6.316746 35,975 434 0
2018-07-19 22:17:16 GMT 45.073792 6.320866 35,975 433 0
2018-07-19 22:17:13 GMT 45.069317 6.325177 35,975 433 128
2018-07-19 22:17:09 GMT 45.063675 6.330872 35,975 433 0
2018-07-19 22:17:06 GMT 45.058189 6.336030 35,975 433 -192
2018-07-19 22:17:02 GMT 45.052837 6.341121 35,975 433 0
2018-07-19 22:16:59 GMT 45.047714 6.346145 35,975 434 -128
2018-07-19 22:16:56 GMT 45.042038 6.351437 35,975 434 0
2018-07-19 22:16:51 GMT 45.035007 6.358337 35,975 433 -64
2018-07-19 22:16:48 GMT 45.028976 6.364354 35,975 434 64
2018-07-19 22:16:43 GMT 45.021606 6.371547 35,975 434 192
2018-07-19 22:16:40 GMT 45.017643 6.375487 35,975 433 64
2018-07-19 22:16:37 GMT 45.013184 6.379787 35,975 433 0
2018-07-19 22:16:34 GMT 45.006683 6.385607 35,975 434 128
2018-07-19 22:16:31 GMT 45.002884 6.389531 35,975 434 -64
2018-07-19 22:16:27 GMT 44.997253 6.394893 35,975 434 -128
2018-07-19 22:16:23 GMT 44.991394 6.400909 35,975 434 64
2018-07-19 22:16:20 GMT 44.986588 6.405160 35,975 434 -128
2018-07-19 22:16:17 GMT 44.983009 6.408580 35,975 435 -128
2018-07-19 22:16:12 GMT 44.974258 6.417020 35,975 435 128
2018-07-19 22:16:09 GMT 44.970299 6.421174 35,975 435 192
2018-07-19 22:16:06 GMT 44.964436 6.426801 35,975 435 -64
2018-07-19 22:16:02 GMT 44.959122 6.431645 35,975 435 64
2018-07-19 22:15:59 GMT 44.954147 6.436448 35,975 435 0
2018-07-19 22:15:56 GMT 44.949005 6.441585 35,975 435 64
2018-07-19 22:15:51 GMT 44.941299 6.448975 35,975 435 0
2018-07-19 22:15:48 GMT 44.935593 6.454272 35,975 435 0
2018-07-19 22:15:44 GMT 44.931660 6.458018 35,975 435 0
2018-07-19 22:15:40 GMT 44.925468 6.464248 35,975 435 128
2018-07-19 22:15:37 GMT 44.919983 6.469378 35,975 435 128
2018-07-19 22:15:31 GMT 44.908665 6.479991 35,975 435 0
2018-07-19 22:15:27 GMT 44.904190 6.484680 35,975 435 192
2018-07-19 22:15:23 GMT 44.898888 6.489436 35,975 436 -64
2018-07-19 22:15:20 GMT 44.893208 6.494796 35,975 435 -64
2018-07-19 22:15:17 GMT 44.888763 6.499067 35,975 435 -256
2018-07-19 22:15:14 GMT 44.883774 6.503906 35,975 435 -192
2018-07-19 22:15:11 GMT 44.879288 6.508549 35,975 435 320
2018-07-19 22:15:08 GMT 44.875351 6.511950 35,975 435 128
2018-07-19 22:15:05 GMT 44.870911 6.516232 35,975 436 -128
2018-07-19 22:15:02 GMT 44.863861 6.522936 35,975 436 -128
2018-07-19 22:14:58 GMT 44.859375 6.527579 35,975 436 0
2018-07-19 22:14:55 GMT 44.852875 6.533399 35,950 436 -128
2018-07-19 22:14:51 GMT 44.848240 6.538071 35,950 436 64
2018-07-19 22:14:48 GMT 44.843445 6.542489 35,975 435 64
2018-07-19 22:14:44 GMT 44.836899 6.549029 35,975 434 0
2018-07-19 22:14:41 GMT 44.832458 6.552952 35,975 434 0
2018-07-19 22:14:37 GMT 44.827106 6.558302 35,975 434 0
2018-07-19 22:14:33 GMT 44.820419 6.564854 35,975 434 64
2018-07-19 22:14:29 GMT 44.813736 6.571001 35,975 434 0
2018-07-19 22:14:25 GMT 44.805832 6.578399 35,975 435 0
2018-07-19 22:14:19 GMT 44.797264 6.586639 35,975 434 -128
2018-07-19 22:14:16 GMT 44.793823 6.589900 35,975 434 -64
2018-07-19 22:14:13 GMT 44.789864 6.593673 35,975 434 0
2018-07-19 22:14:08 GMT 44.781281 6.602064 35,975 434 0
2018-07-19 22:14:03 GMT 44.772720 6.610500 35,975 434 -64
2018-07-19 22:13:58 GMT 44.765656 6.617186 35,975 435 128
2018-07-19 22:13:55 GMT 44.761372 6.620803 35,975 435 -192
2018-07-19 22:13:51 GMT 44.755043 6.626967 35,975 435 0
2018-07-19 22:13:48 GMT 44.749374 6.632276 35,975 435 0
2018-07-19 22:13:45 GMT 44.745731 6.636077 35,975 436 64
2018-07-19 22:13:42 GMT 44.740936 6.640364 35,975 437 0
2018-07-19 22:13:37 GMT 44.733208 6.647733 35,975 435 0
2018-07-19 22:13:32 GMT 44.726166 6.654445 36,000 437 0
2018-07-19 22:13:29 GMT 44.720856 6.659415 36,000 435 0
2018-07-19 22:13:26 GMT 44.716404 6.663677 36,000 435 0
2018-07-19 22:13:23 GMT 44.710213 6.669706 36,000 437 0
2018-07-19 22:13:19 GMT 44.705429 6.674325 36,000 437 64
2018-07-19 22:13:16 GMT 44.700436 6.678951 36,000 437 0
2018-07-19 22:13:12 GMT 44.694431 6.684444 36,000 437 -128
2018-07-19 22:13:08 GMT 44.687576 6.691197 36,000 436 0
2018-07-19 22:13:05 GMT 44.683258 6.695095 36,000 436 0
2018-07-19 22:13:01 GMT 44.677963 6.700287 36,000 436 -64
2018-07-19 22:12:56 GMT 44.666965 6.710570 36,000 437 128
2018-07-19 22:12:52 GMT 44.662823 6.714522 35,975 438 0
2018-07-19 22:12:49 GMT 44.658028 6.719144 35,975 438 64
2018-07-19 22:12:45 GMT 44.652348 6.724437 35,975 437 64
2018-07-19 22:12:42 GMT 44.648251 6.728791 35,975 436 -128
2018-07-19 22:12:39 GMT 44.642433 6.734284 35,975 436 -128
2018-07-19 22:12:36 GMT 44.638988 6.737165 35,975 436 64
2018-07-19 22:12:32 GMT 44.632610 6.743328 35,975 434 0
2018-07-19 22:12:25 GMT 44.620598 6.754850 35,975 434 -64
2018-07-19 22:12:22 GMT 44.616642 6.758468 35,975 434 0
2018-07-19 22:12:17 GMT 44.609436 6.765485 35,975 435 -64
2018-07-19 22:12:14 GMT 44.604305 6.770459 35,975 435 128
2018-07-19 22:12:11 GMT 44.597626 6.776799 35,975 435 -64
2018-07-19 22:12:08 GMT 44.594528 6.779770 35,975 435 -64
2018-07-19 22:12:04 GMT 44.588341 6.785598 36,000 435 64
2018-07-19 22:11:58 GMT 44.578400 6.795044 36,000 436 128
2018-07-19 22:11:53 GMT 44.572884 6.800537 36,000 435 0
2018-07-19 22:11:47 GMT 44.562595 6.810117 36,000 436 -192
2018-07-19 22:11:42 GMT 44.554688 6.817867 36,000 437 0
2018-07-19 22:11:37 GMT 44.545792 6.826060 36,000 438 -128
2018-07-19 22:11:33 GMT 44.540436 6.831084 36,000 439 -192
2018-07-19 22:11:28 GMT 44.531361 6.839659 36,000 444 128
2018-07-19 22:11:25 GMT 44.528412 6.842586 36,000 441 -64
2018-07-19 22:11:22 GMT 44.524155 6.846837 36,000 442 -64
2018-07-19 22:11:17 GMT 44.515915 6.854422 36,000 444 128
2018-07-19 22:11:13 GMT 44.509384 6.860627 35,975 445 64
2018-07-19 22:11:10 GMT 44.503521 6.866120 35,975 447 0
2018-07-19 22:11:04 GMT 44.493576 6.875545 36,000 451 -512
2018-07-19 22:11:01 GMT 44.489647 6.879116 36,000 452 0
2018-07-19 22:10:56 GMT 44.480709 6.887557 36,025 452 -128
2018-07-19 22:10:52 GMT 44.475723 6.892155 36,025 453 128
2018-07-19 22:10:48 GMT 44.469723 6.897873 36,025 453 64
2018-07-19 22:10:43 GMT 44.459610 6.907261 36,025 453 0
2018-07-19 22:10:38 GMT 44.453430 6.913147 36,025 454 64
2018-07-19 22:10:35 GMT 44.447937 6.918248 36,025 453 -64
2018-07-19 22:10:29 GMT 44.439148 6.926357 36,025 454 0
2018-07-19 22:10:25 GMT 44.431271 6.933713 36,000 454 128
2018-07-19 22:10:20 GMT 44.424568 6.940278 36,000 454 64
2018-07-19 22:10:17 GMT 44.419773 6.944565 36,000 454 0
2018-07-19 22:10:14 GMT 44.414795 6.949180 36,000 454 192
2018-07-19 22:10:11 GMT 44.408600 6.954815 36,000 454 0
2018-07-19 22:10:07 GMT 44.402435 6.960820 35,975 451 64
2018-07-19 22:10:04 GMT 44.398125 6.964997 35,975 455 64
2018-07-19 22:10:01 GMT 44.392822 6.969583 35,975 455 -64
2018-07-19 22:09:57 GMT 44.386642 6.975468 35,975 453 0
2018-07-19 22:09:51 GMT 44.375290 6.986062 35,975 453 0
2018-07-19 22:09:48 GMT 44.372196 6.989515 35,975 453 0
2018-07-19 22:09:44 GMT 44.364304 6.996918 35,975 452 0
2018-07-19 22:09:40 GMT 44.358994 7.001888 35,975 451 192
2018-07-19 22:09:36 GMT 44.352646 7.007536 35,975 452 -192
2018-07-19 22:09:31 GMT 44.344757 7.015097 35,975 452 64
2018-07-19 22:09:27 GMT 44.337524 7.021768 35,975 451 0
2018-07-19 22:09:23 GMT 44.331345 7.027653 35,975 451 0
2018-07-19 22:09:20 GMT 44.325878 7.032791 35,975 451 -192
2018-07-19 22:09:16 GMT 44.320896 7.037547 35,975 450 -256
2018-07-19 22:09:13 GMT 44.315048 7.043217 36,000 451 0
2018-07-19 22:09:10 GMT 44.309586 7.048198 36,000 451 -192
2018-07-19 22:09:05 GMT 44.302509 7.054763 36,000 452 192
2018-07-19 22:09:00 GMT 44.292389 7.064340 36,000 452 -64
2018-07-19 22:08:57 GMT 44.289146 7.067291 36,000 452 -64
2018-07-19 22:08:54 GMT 44.284492 7.071913 36,000 452 64
2018-07-19 22:08:50 GMT 44.277790 7.077942 36,000 451 -64
2018-07-19 22:08:47 GMT 44.273163 7.082193 36,000 452 0
2018-07-19 22:08:44 GMT 44.268200 7.086852 36,000 452 0
2018-07-19 22:08:40 GMT 44.260620 7.093898 36,000 452 0
2018-07-19 22:08:36 GMT 44.255676 7.098541 36,000 452 64
2018-07-19 22:08:32 GMT 44.248260 7.105539 36,000 452 -128
2018-07-19 22:08:28 GMT 44.242264 7.111228 36,000 453 64
2018-07-19 22:08:23 GMT 44.234390 7.118290 35,975 452 0
2018-07-19 22:08:20 GMT 44.226486 7.125840 35,975 452 256
2018-07-19 22:08:17 GMT 44.224579 7.127179 35,975 453 0
2018-07-19 22:08:13 GMT 44.217911 7.133397 35,975 455 192
2018-07-19 22:08:08 GMT 44.210358 7.140721 35,975 455 128
2018-07-19 22:08:01 GMT 44.197311 7.152623 35,975 453 -64
2018-07-19 22:07:56 GMT 44.190781 7.158770 35,975 450 -64
2018-07-19 22:07:52 GMT 44.184078 7.164786 35,975 450 -128
2018-07-19 22:07:48 GMT 44.174301 7.173680 35,975 450 -128
2018-07-19 22:07:43 GMT 44.169136 7.178519 35,975 450 -256
2018-07-19 22:07:40 GMT 44.163830 7.183293 35,975 450 -704
2018-07-19 22:07:37 GMT 44.158859 7.187933 35,975 450 -256
2018-07-19 22:07:31 GMT 44.150620 7.195534 35,975 452 -64
2018-07-19 22:07:28 GMT 44.143066 7.202688 36,000 452 0
2018-07-19 22:07:21 GMT 44.133617 7.211151 35,975 452 192
2018-07-19 22:07:17 GMT 44.126728 7.217821 36,000 452 -64
2018-07-19 22:07:12 GMT 44.119370 7.224361 36,000 453 320
2018-07-19 22:07:09 GMT 44.113861 7.230026 36,000 453 -64
2018-07-19 22:07:06 GMT 44.109558 7.233986 36,000 453 0
2018-07-19 22:06:59 GMT 44.098434 7.246122 36,000 453 64
2018-07-19 22:06:54 GMT 44.089508 7.256278 36,025 453 -128
2018-07-19 22:06:51 GMT 44.086552 7.259543 36,000 454 64
2018-07-19 22:06:47 GMT 44.079197 7.268110 36,025 455 0
2018-07-19 22:06:44 GMT 44.074913 7.272753 36,025 455 0
2018-07-19 22:06:41 GMT 44.071655 7.276546 36,025 455 192
2018-07-19 22:06:37 GMT 44.065475 7.283233 36,025 455 -128
2018-07-19 22:06:31 GMT 44.056183 7.293900 36,025 455 128
2018-07-19 22:06:27 GMT 44.051559 7.298690 36,025 454 192
2018-07-19 22:06:24 GMT 44.044331 7.307281 36,025 455 0
2018-07-19 22:06:20 GMT 44.040745 7.310878 36,025 457 -64
2018-07-19 22:06:17 GMT 44.036091 7.316371 36,025 457 -64
2018-07-19 22:06:10 GMT 44.025288 7.328535 36,000 457 128
2018-07-19 22:06:07 GMT 44.020981 7.333374 36,000 457 0
2018-07-19 22:06:02 GMT 44.012604 7.342444 36,000 457 0
2018-07-19 22:05:59 GMT 44.008987 7.346404 36,000 456 192
2018-07-19 22:05:56 GMT 44.004341 7.351554 36,000 456 0
2018-07-19 22:05:49 GMT 43.993542 7.363717 36,000 454 0
2018-07-19 22:05:46 GMT 43.988373 7.369603 36,000 454 64
2018-07-19 22:05:41 GMT 43.981705 7.377319 36,000 454 64
2018-07-19 22:05:36 GMT 43.973618 7.386736 36,000 454 0
2018-07-19 22:05:31 GMT 43.966400 7.394780 36,000 455 -128
2018-07-19 22:05:28 GMT 43.962799 7.398909 36,000 455 0
2018-07-19 22:05:25 GMT 43.958534 7.403739 36,000 455 -64
2018-07-19 22:05:21 GMT 43.951134 7.412502 36,000 454 -192
2018-07-19 22:05:18 GMT 43.947372 7.416793 36,000 453 320
2018-07-19 22:05:14 GMT 43.941879 7.422989 36,000 453 192
2018-07-19 22:05:10 GMT 43.935150 7.430846 35,975 453 128
2018-07-19 22:05:05 GMT 43.927597 7.439085 35,975 453 128
2018-07-19 22:05:00 GMT 43.920219 7.447880 35,975 453 192
2018-07-19 22:04:54 GMT 43.911484 7.457290 35,975 453 0
2018-07-19 22:04:50 GMT 43.904800 7.465018 35,975 452 0
2018-07-19 22:04:45 GMT 43.896713 7.474104 35,975 452 -64
2018-07-19 22:04:39 GMT 43.889359 7.482213 35,975 452 0
2018-07-19 22:04:34 GMT 43.881256 7.491302 35,975 452 -192
2018-07-19 22:04:29 GMT 43.873714 7.499869 35,975 452 0
2018-07-19 22:04:24 GMT 43.866501 7.508436 36,000 452 -128
2018-07-19 22:04:19 GMT 43.857422 7.518245 36,000 453 192
2018-07-19 22:04:14 GMT 43.850693 7.525954 36,000 452 0
2018-07-19 22:04:06 GMT 43.839359 7.538975 36,000 453 -128
2018-07-19 22:04:03 GMT 43.835262 7.543291 36,000 452 0
2018-07-19 22:03:58 GMT 43.827209 7.552590 36,000 452 -192
2018-07-19 22:03:53 GMT 43.819977 7.560446 36,000 453 0
2018-07-19 22:03:46 GMT 43.807617 7.574179 36,000 454 -192
2018-07-19 22:03:43 GMT 43.804352 7.578147 36,000 455 -128
2018-07-19 22:03:37 GMT 43.796310 7.586890 36,000 455 64
2018-07-19 22:03:32 GMT 43.788898 7.595149 36,000 455 0
2018-07-19 22:03:27 GMT 43.780838 7.604072 36,000 454 0
2018-07-19 22:03:22 GMT 43.773285 7.612823 36,000 454 -128
2018-07-19 22:03:16 GMT 43.764359 7.622404 36,000 455 128
2018-07-19 22:03:11 GMT 43.757523 7.630136 36,000 456 -64
2018-07-19 22:03:05 GMT 43.749069 7.639778 35,975 456 -64
2018-07-19 22:03:01 GMT 43.741879 7.647661 35,975 456 64
2018-07-19 22:02:53 GMT 43.729706 7.661048 35,950 455 64
2018-07-19 22:02:50 GMT 43.726776 7.664305 35,950 456 128
2018-07-19 22:02:43 GMT 43.715424 7.676825 35,950 455 0
2018-07-19 22:02:40 GMT 43.711670 7.681487 35,950 454 -64
2018-07-19 22:02:34 GMT 43.702404 7.691607 35,950 451 0
2018-07-19 22:02:31 GMT 43.696060 7.698478 35,950 452 -64
2018-07-19 22:02:27 GMT 43.690022 7.705013 35,950 451 0
2018-07-19 22:02:24 GMT 43.686623 7.708936 35,950 450 -64
2018-07-19 22:02:19 GMT 43.679035 7.717176 35,925 451 192
2018-07-19 22:02:13 GMT 43.670975 7.726455 35,950 451 256
2018-07-19 22:02:08 GMT 43.662739 7.735356 35,950 449 -64
2018-07-19 22:02:03 GMT 43.656223 7.742942 35,950 449 -256
2018-07-19 22:01:58 GMT 43.648308 7.751835 35,950 450 -320
2018-07-19 22:01:53 GMT 43.640766 7.760075 35,950 451 0
2018-07-19 22:01:49 GMT 43.634949 7.766615 35,950 451 0
2018-07-19 22:01:46 GMT 43.631149 7.770719 35,950 451 -128
2018-07-19 22:01:42 GMT 43.624649 7.777618 35,975 450 -256
2018-07-19 22:01:39 GMT 43.619659 7.783302 35,975 451 0
2018-07-19 22:01:36 GMT 43.615349 7.787933 35,975 451 384
2018-07-19 22:01:32 GMT 43.610046 7.794097 35,975 451 -256
2018-07-19 22:01:28 GMT 43.603340 7.801666 35,975 452 -192
2018-07-19 22:01:25 GMT 43.599384 7.805786 35,975 453 -64
2018-07-19 22:01:21 GMT 43.593384 7.812429 35,975 453 -64
2018-07-19 22:01:18 GMT 43.588943 7.817283 36,000 453 -320
2018-07-19 22:01:15 GMT 43.584625 7.822266 36,000 453 -64
2018-07-19 22:01:11 GMT 43.579319 7.828282 36,000 454 0
2018-07-19 22:01:07 GMT 43.572098 7.836126 36,000 455 -192
2018-07-19 22:01:04 GMT 43.568161 7.840278 36,000 454 0
2018-07-19 22:01:01 GMT 43.563862 7.845088 36,000 455 -192
2018-07-19 22:00:57 GMT 43.555618 7.854203 36,000 456 0
2018-07-19 22:00:54 GMT 43.553375 7.856949 36,000 455 -192
2018-07-19 22:00:48 GMT 43.544636 7.866734 36,025 455 256
2018-07-19 22:00:45 GMT 43.539982 7.871312 36,000 455 0
2018-07-19 22:00:41 GMT 43.532776 7.879433 36,000 456 -256
2018-07-19 22:00:36 GMT 43.527466 7.885245 36,025 456 0
2018-07-19 22:00:33 GMT 43.521790 7.891761 36,025 456 -64
2018-07-19 22:00:30 GMT 43.517498 7.896423 36,025 456 0
2018-07-19 22:00:26 GMT 43.511856 7.902236 36,000 457 128
2018-07-19 22:00:23 GMT 43.507023 7.907933 36,000 457 64
2018-07-19 22:00:19 GMT 43.501556 7.913414 36,000 457 -64
2018-07-19 22:00:15 GMT 43.494499 7.921143 36,000 457 -64
2018-07-19 22:00:12 GMT 43.491428 7.924543 36,000 458 0
2018-07-19 22:00:07 GMT 43.483189 7.935006 36,000 458 0
2018-07-19 22:00:02 GMT 43.477158 7.943243 36,000 457 0
2018-07-19 21:59:56 GMT 43.469269 7.956456 36,000 457 0
2018-07-19 21:59:51 GMT 43.464478 7.965727 36,000 457 -64
2018-07-19 21:59:48 GMT 43.461029 7.972804 36,000 456 -128
2018-07-19 21:59:44 GMT 43.457245 7.981887 36,000 456 -128
2018-07-19 21:59:38 GMT 43.452988 7.994278 36,000 456 64
2018-07-19 21:59:33 GMT 43.449203 8.006810 36,000 455 128
2018-07-19 21:59:28 GMT 43.446087 8.018123 36,000 456 -128
2018-07-19 21:59:23 GMT 43.442825 8.029984 36,000 456 128
2018-07-19 21:59:18 GMT 43.438915 8.044019 36,000 456 -128
2018-07-19 21:59:15 GMT 43.437523 8.049186 36,000 456 0
2018-07-19 21:59:12 GMT 43.436172 8.055006 36,000 456 0
2018-07-19 21:59:07 GMT 43.432354 8.068085 36,000 456 0
2018-07-19 21:59:02 GMT 43.429607 8.078221 36,000 455 64
2018-07-19 21:58:55 GMT 43.424999 8.094700 36,000 455 0
2018-07-19 21:58:52 GMT 43.422764 8.102744 36,000 456 64
2018-07-19 21:58:46 GMT 43.419342 8.115958 36,000 455 128
2018-07-19 21:58:42 GMT 43.416061 8.126940 36,000 455 0
2018-07-19 21:58:35 GMT 43.412289 8.141196 36,000 455 0
2018-07-19 21:58:32 GMT 43.409542 8.151332 36,000 455 64
2018-07-19 21:58:24 GMT 43.403870 8.171209 36,000 455 -64
2018-07-19 21:58:21 GMT 43.402496 8.175872 36,000 455 64
2018-07-19 21:58:13 GMT 43.397346 8.194427 36,000 455 64
2018-07-19 21:58:10 GMT 43.395809 8.200248 36,000 455 -320
2018-07-19 21:58:03 GMT 43.390827 8.218754 36,000 455 -192
2018-07-19 21:58:00 GMT 43.389130 8.224289 36,000 456 0
2018-07-19 21:57:52 GMT 43.384323 8.241982 36,000 456 -192
2018-07-19 21:57:49 GMT 43.382401 8.248816 36,000 456 0
2018-07-19 21:57:42 GMT 43.377274 8.267723 36,000 456 192
2018-07-19 21:57:36 GMT 43.373650 8.279899 36,000 455 0
2018-07-19 21:57:32 GMT 43.370903 8.290558 36,000 455 64
2018-07-19 21:57:28 GMT 43.368530 8.298928 36,000 456 0
2018-07-19 21:57:21 GMT 43.363689 8.316127 36,000 456 64
2018-07-19 21:57:18 GMT 43.362152 8.321620 36,000 456 128
2018-07-19 21:57:12 GMT 43.357357 8.338950 36,000 456 -64
2018-07-19 21:57:09 GMT 43.355301 8.345969 36,000 456 64
2018-07-19 21:57:01 GMT 43.350677 8.362831 36,000 456 -192
2018-07-19 21:56:58 GMT 43.348793 8.369686 36,000 456 -128
2018-07-19 21:56:50 GMT 43.343811 8.387669 36,000 456 -64
2018-07-19 21:56:46 GMT 43.340881 8.397643 36,000 455 -64
2018-07-19 21:56:40 GMT 43.337296 8.410361 36,000 455 64
2018-07-19 21:56:37 GMT 43.335205 8.418593 36,000 455 -128
2018-07-19 21:56:30 GMT 43.330402 8.435407 35,975 455 256
2018-07-19 21:56:26 GMT 43.328156 8.443824 35,975 455 0
2018-07-19 21:56:20 GMT 43.323898 8.458578 35,975 455 0
2018-07-19 21:56:16 GMT 43.321472 8.467010 35,975 455 0
2018-07-19 21:56:12 GMT 43.318726 8.477804 35,975 455 0
2018-07-19 21:56:09 GMT 43.317169 8.482787 35,975 455 0
2018-07-19 21:56:05 GMT 43.313599 8.495306 35,975 455 64
2018-07-19 21:55:59 GMT 43.310341 8.507145 35,975 455 0
2018-07-19 21:55:56 GMT 43.308105 8.515385 35,975 455 -192
2018-07-19 21:55:52 GMT 43.305176 8.525518 35,975 455 128
2018-07-19 21:55:49 GMT 43.303265 8.532061 35,975 455 64
2018-07-19 21:55:44 GMT 43.300892 8.540497 35,975 455 0
2018-07-19 21:55:38 GMT 43.296936 8.554709 35,950 455 128
2018-07-19 21:55:35 GMT 43.294514 8.563320 35,950 455 0
2018-07-19 21:55:31 GMT 43.291252 8.575483 35,950 454 128
2018-07-19 21:55:27 GMT 43.289719 8.580453 35,950 454 128
2018-07-19 21:55:22 GMT 43.286461 8.592486 35,950 453 192
2018-07-19 21:55:18 GMT 43.284073 8.600890 35,950 453 -256
2018-07-19 21:55:13 GMT 43.280457 8.613792 35,975 453 -64
2018-07-19 21:55:08 GMT 43.277195 8.625772 35,975 453 -64
2018-07-19 21:55:04 GMT 43.274597 8.634551 35,975 453 -64
2018-07-19 21:55:00 GMT 43.271530 8.645346 35,975 453 -64
2018-07-19 21:54:57 GMT 43.269974 8.650711 35,975 453 0
2018-07-19 21:54:54 GMT 43.267731 8.659079 35,975 454 0
2018-07-19 21:54:49 GMT 43.264671 8.669390 35,975 454 -192
2018-07-19 21:54:46 GMT 43.263290 8.674345 35,975 454 0
2018-07-19 21:54:43 GMT 43.261040 8.683123 35,975 454 -192
2018-07-19 21:54:39 GMT 43.258118 8.692741 35,975 454 0
2018-07-19 21:54:33 GMT 43.254013 8.708038 35,975 454 -192
2018-07-19 21:54:28 GMT 43.251617 8.716246 35,975 455 -256
2018-07-19 21:54:25 GMT 43.249374 8.724167 35,975 455 0
2018-07-19 21:54:22 GMT 43.247307 8.731188 35,975 455 0
2018-07-19 21:54:19 GMT 43.244568 8.741157 35,975 455 -128
2018-07-19 21:54:12 GMT 43.240978 8.754011 35,975 455 -192
2018-07-19 21:54:08 GMT 43.238068 8.763960 35,975 455 0
2018-07-19 21:54:05 GMT 43.236328 8.770156 36,000 455 0
2018-07-19 21:54:02 GMT 43.233574 8.779776 36,000 455 -64
2018-07-19 21:53:58 GMT 43.231522 8.786827 36,000 455 64
2018-07-19 21:53:52 GMT 43.227585 8.800368 36,000 455 -128
2018-07-19 21:53:47 GMT 43.224312 8.812408 36,000 455 -192
2018-07-19 21:53:41 GMT 43.219841 8.828169 36,000 456 128
2018-07-19 21:53:37 GMT 43.217793 8.834904 36,000 456 -192
2018-07-19 21:53:31 GMT 43.213852 8.848976 36,000 457 0
2018-07-19 21:53:27 GMT 43.211105 8.858557 36,000 457 0
2018-07-19 21:53:23 GMT 43.209045 8.865584 36,000 457 0
2018-07-19 21:53:20 GMT 43.205784 8.876757 36,000 457 0
2018-07-19 21:53:16 GMT 43.203876 8.883427 36,000 457 0
2018-07-19 21:53:13 GMT 43.202011 8.890490 36,000 457 0
2018-07-19 21:53:08 GMT 43.199081 8.900430 36,000 457 64
2018-07-19 21:53:04 GMT 43.195312 8.914192 36,000 457 -192
2018-07-19 21:53:00 GMT 43.193756 8.919174 36,000 458 0
2018-07-19 21:52:56 GMT 43.190140 8.931502 36,000 457 -64
2018-07-19 21:52:49 GMT 43.186386 8.944915 36,000 458 256
2018-07-19 21:52:45 GMT 43.183483 8.955362 36,000 457 -256
2018-07-19 21:52:40 GMT 43.180038 8.967067 36,000 458 -64
2018-07-19 21:52:37 GMT 43.178146 8.973594 36,000 458 256
2018-07-19 21:52:34 GMT 43.176407 8.979918 36,000 458 128
2018-07-19 21:52:28 GMT 43.172287 8.994545 36,000 457 0
2018-07-19 21:52:25 GMT 43.169907 9.002402 36,000 457 -128
2018-07-19 21:52:17 GMT 43.164597 9.021628 36,000 457 256
2018-07-19 21:52:14 GMT 43.163048 9.026642 36,000 457 -320
2018-07-19 21:52:10 GMT 43.160294 9.036255 36,000 458 -256
2018-07-19 21:52:06 GMT 43.158051 9.044303 36,000 457 -64
2018-07-19 21:52:01 GMT 43.153931 9.059250 36,000 457 192
2018-07-19 21:51:54 GMT 43.148941 9.076751 36,000 457 0
2018-07-19 21:51:49 GMT 43.146194 9.085502 36,000 457 128
2018-07-19 21:51:44 GMT 43.143124 9.095960 35,975 457 0
2018-07-19 21:51:39 GMT 43.140190 9.106424 35,975 457 0
2018-07-19 21:51:34 GMT 43.136261 9.120185 35,975 457 64
2018-07-19 21:51:31 GMT 43.134884 9.125126 35,975 457 0
2018-07-19 21:51:28 GMT 43.132465 9.133562 35,975 457 0
2018-07-19 21:51:24 GMT 43.128880 9.146118 35,975 456 64
2018-07-19 21:51:21 GMT 43.127838 9.149376 35,975 456 -64
2018-07-19 21:51:11 GMT 43.121155 9.172690 35,975 456 0
2018-07-19 21:51:08 GMT 43.118916 9.180058 35,975 456 0
2018-07-19 21:51:03 GMT 43.115295 9.192938 35,975 456 -192
2018-07-19 21:51:00 GMT 43.113937 9.197257 35,975 456 -320
2018-07-19 21:50:57 GMT 43.111702 9.205170 35,975 456 -256
2018-07-19 21:50:53 GMT 43.109116 9.214272 35,975 456 -128
2018-07-19 21:50:50 GMT 43.107094 9.221257 35,975 456 -64
2018-07-19 21:50:46 GMT 43.104172 9.231262 35,975 456 320
2018-07-19 21:50:43 GMT 43.102440 9.237082 35,975 456 0
2018-07-19 21:50:39 GMT 43.099686 9.247039 35,975 456 128
2018-07-19 21:50:34 GMT 43.096619 9.257514 35,975 455 64
2018-07-19 21:50:30 GMT 43.093872 9.267491 35,975 455 -128
2018-07-19 21:50:23 GMT 43.089031 9.283970 35,975 455 -64
2018-07-19 21:50:19 GMT 43.086655 9.291818 35,975 455 64
2018-07-19 21:50:15 GMT 43.083214 9.303850 35,975 455 -320
2018-07-19 21:50:12 GMT 43.082001 9.307970 35,975 455 -256
2018-07-19 21:50:09 GMT 43.079773 9.315895 35,975 455 -192
2018-07-19 21:50:05 GMT 43.076706 9.326690 35,975 455 -320
2018-07-19 21:49:59 GMT 43.073090 9.339018 35,975 455 -64
2018-07-19 21:49:49 GMT 43.066547 9.361856 36,000 456 -64
2018-07-19 21:49:42 GMT 43.062103 9.376831 36,000 457 320
2018-07-19 21:49:38 GMT 43.059517 9.385921 36,000 457 -128
2018-07-19 21:49:33 GMT 43.055557 9.399123 36,000 457 128
2018-07-19 21:49:27 GMT 43.051987 9.412026 36,000 457 0
2018-07-19 21:49:22 GMT 43.048370 9.424034 36,000 457 128
2018-07-19 21:49:17 GMT 43.045258 9.434829 36,000 457 0
2018-07-19 21:49:12 GMT 43.041504 9.447220 36,000 457 64
2018-07-19 21:49:07 GMT 43.038574 9.458015 36,000 457 -128
2018-07-19 21:49:02 GMT 43.034798 9.470542 36,000 458 -64
2018-07-19 21:48:57 GMT 43.031525 9.481329 36,000 458 -128
2018-07-19 21:48:51 GMT 43.027405 9.495764 36,000 458 0
2018-07-19 21:48:47 GMT 43.024658 9.504898 36,000 458 64
2018-07-19 21:48:44 GMT 43.022087 9.514487 36,000 458 64
2018-07-19 21:48:41 GMT 43.020721 9.518631 36,000 457 64
2018-07-19 21:48:36 GMT 43.017296 9.530640 36,000 458 64
2018-07-19 21:48:33 GMT 43.015385 9.536787 36,000 458 -64
2018-07-19 21:48:29 GMT 43.012314 9.547642 36,000 458 0
2018-07-19 21:48:24 GMT 43.009415 9.557594 36,000 458 64
2018-07-19 21:48:18 GMT 43.005608 9.569942 36,000 458 64
2018-07-19 21:48:14 GMT 43.002869 9.579184 36,000 458 -64
2018-07-19 21:48:08 GMT 42.997879 9.596047 36,000 458 192
2018-07-19 21:48:03 GMT 42.994621 9.607348 36,000 457 0
2018-07-19 21:47:59 GMT 42.992249 9.615064 36,000 457 0
2018-07-19 21:47:54 GMT 42.989128 9.626378 35,975 457 -64
2018-07-19 21:47:48 GMT 42.985016 9.639609 36,000 457 -64
2018-07-19 21:47:43 GMT 42.981949 9.650467 36,000 457 0
2018-07-19 21:47:38 GMT 42.978149 9.663114 36,000 457 128
2018-07-19 21:47:33 GMT 42.974899 9.674292 36,000 456 0
2018-07-19 21:47:26 GMT 42.969902 9.691838 35,975 456 256
2018-07-19 21:47:23 GMT 42.968033 9.698309 35,975 457 320
2018-07-19 21:47:15 GMT 42.962860 9.715810 35,975 456 0
2018-07-19 21:47:12 GMT 42.961014 9.722508 35,975 457 0
2018-07-19 21:47:05 GMT 42.955845 9.738857 35,975 456 -64
2018-07-19 21:47:02 GMT 42.953613 9.745703 35,975 456 0
2018-07-19 21:46:55 GMT 42.946396 9.763903 35,975 456 64
2018-07-19 21:46:51 GMT 42.944183 9.769209 35,975 456 64
2018-07-19 21:46:46 GMT 42.939011 9.780387 35,975 456 -128
2018-07-19 21:46:43 GMT 42.935734 9.787053 35,975 456 64
2018-07-19 21:46:40 GMT 42.933334 9.792395 35,975 456 128
2018-07-19 21:46:33 GMT 42.925278 9.809769 35,975 456 64
2018-07-19 21:46:30 GMT 42.923397 9.813538 35,975 456 -128
2018-07-19 21:46:20 GMT 42.913605 9.834999 35,975 455 -64
2018-07-19 21:46:15 GMT 42.909153 9.844404 35,975 455 128
2018-07-19 21:46:10 GMT 42.903809 9.855247 35,975 455 -64
2018-07-19 21:46:07 GMT 42.900238 9.862784 35,975 455 -64
2018-07-19 21:46:04 GMT 42.898315 9.866872 35,975 456 -128
2018-07-19 21:46:01 GMT 42.895096 9.873766 35,975 455 -64
2018-07-19 21:45:58 GMT 42.891647 9.881352 35,975 455 256
2018-07-19 21:45:54 GMT 42.888565 9.888015 35,975 456 -256
2018-07-19 21:45:50 GMT 42.884434 9.896262 35,975 456 -64
2018-07-19 21:45:47 GMT 42.881699 9.902578 35,975 456 0
2018-07-19 21:45:43 GMT 42.877716 9.911009 35,975 456 0
2018-07-19 21:45:38 GMT 42.871216 9.924551 35,975 456 0
2018-07-19 21:45:31 GMT 42.864349 9.939178 35,975 456 -192
2018-07-19 21:45:26 GMT 42.859386 9.950147 35,975 456 64
2018-07-19 21:45:20 GMT 42.853867 9.960959 35,975 456 -128
2018-07-19 21:45:16 GMT 42.849426 9.970747 35,975 456 256
2018-07-19 21:45:09 GMT 42.842537 9.985003 35,975 456 -64
2018-07-19 21:45:05 GMT 42.838943 9.993215 36,000 456 128
2018-07-19 21:45:02 GMT 42.836380 9.998070 36,000 456 64
2018-07-19 21:44:59 GMT 42.833450 10.004585 36,000 457 -128
2018-07-19 21:44:56 GMT 42.830887 10.009695 36,000 457 128
2018-07-19 21:44:51 GMT 42.825546 10.021428 36,000 457 0
2018-07-19 21:44:47 GMT 42.821960 10.028948 36,000 457 -192
2018-07-19 21:44:41 GMT 42.815918 10.041632 36,000 457 0
2018-07-19 21:44:38 GMT 42.813171 10.046997 36,000 457 0
2018-07-19 21:44:34 GMT 42.808739 10.056387 36,000 457 0
2018-07-19 21:44:30 GMT 42.804783 10.064626 36,000 457 0
2018-07-19 21:44:25 GMT 42.799988 10.074588 36,000 457 -64
2018-07-19 21:44:21 GMT 42.795319 10.084388 36,000 457 0
2018-07-19 21:44:17 GMT 42.792572 10.090381 36,000 457 -256
2018-07-19 21:44:12 GMT 42.787079 10.102054 36,000 457 128
2018-07-19 21:44:08 GMT 42.781925 10.112532 36,000 458 -128
2018-07-19 21:44:04 GMT 42.778339 10.120133 36,000 458 0
2018-07-19 21:44:01 GMT 42.775082 10.127159 36,000 458 192
2018-07-19 21:43:57 GMT 42.772148 10.133674 36,000 458 192
2018-07-19 21:43:53 GMT 42.768539 10.140693 36,000 458 0
2018-07-19 21:43:49 GMT 42.764282 10.149807 36,000 458 0
2018-07-19 21:43:42 GMT 42.756882 10.165228 36,000 458 -128
2018-07-19 21:43:38 GMT 42.753807 10.171935 36,000 458 0
2018-07-19 21:43:34 GMT 42.749176 10.181704 36,000 458 192
2018-07-19 21:43:31 GMT 42.745193 10.189944 36,000 458 -192
2018-07-19 21:43:27 GMT 42.742630 10.195625 36,000 458 -192
2018-07-19 21:43:22 GMT 42.737823 10.205425 36,000 458 64
2018-07-19 21:43:17 GMT 42.732861 10.216263 36,000 458 0
2018-07-19 21:43:12 GMT 42.727203 10.227585 36,000 458 0
2018-07-19 21:43:08 GMT 42.722900 10.237011 36,000 458 192
2018-07-19 21:43:04 GMT 42.719639 10.243346 36,000 458 0
2018-07-19 21:42:59 GMT 42.713287 10.256923 36,000 458 0
2018-07-19 21:42:54 GMT 42.709351 10.265163 36,000 458 64
2018-07-19 21:42:51 GMT 42.706741 10.270844 36,000 458 64
2018-07-19 21:42:45 GMT 42.699715 10.285055 36,000 458 128
2018-07-19 21:42:41 GMT 42.696121 10.292442 36,000 457 -64
2018-07-19 21:42:37 GMT 42.692322 10.300681 36,000 457 -64
2018-07-19 21:42:33 GMT 42.688202 10.309108 36,000 458 0
2018-07-19 21:42:30 GMT 42.685471 10.314757 35,975 458 64
2018-07-19 21:42:26 GMT 42.681187 10.323699 35,975 457 -320
2018-07-19 21:42:23 GMT 42.678951 10.329001 35,975 457 -128
2018-07-19 21:42:20 GMT 42.675694 10.335388 35,975 457 -128
2018-07-19 21:42:17 GMT 42.671722 10.343628 35,975 457 -128
2018-07-19 21:42:14 GMT 42.668976 10.349620 35,975 457 0
2018-07-19 21:42:10 GMT 42.664352 10.358859 35,975 457 -128
2018-07-19 21:42:06 GMT 42.661972 10.363853 35,975 457 64
2018-07-19 21:42:03 GMT 42.658329 10.371221 35,975 457 64
2018-07-19 21:41:57 GMT 42.651672 10.385139 35,975 456 -64
2018-07-19 21:41:54 GMT 42.648552 10.391470 35,975 456 64
2018-07-19 21:41:48 GMT 42.643936 10.401618 35,975 456 -128
2018-07-19 21:41:42 GMT 42.638081 10.413634 35,975 456 192
2018-07-19 21:41:37 GMT 42.632771 10.424812 35,975 456 64
2018-07-19 21:41:33 GMT 42.627464 10.435606 35,975 457 192
2018-07-19 21:41:28 GMT 42.623508 10.443846 35,975 457 0
2018-07-19 21:41:22 GMT 42.618202 10.455024 35,975 457 0
2018-07-19 21:41:19 GMT 42.615082 10.461348 35,975 457 -192
2018-07-19 21:41:16 GMT 42.611298 10.469596 35,975 457 0
2018-07-19 21:41:12 GMT 42.606674 10.478897 35,975 457 128
2018-07-19 21:41:09 GMT 42.604614 10.483017 35,975 457 0
2018-07-19 21:41:06 GMT 42.600998 10.490570 35,975 457 -128
2018-07-19 21:41:01 GMT 42.596882 10.498969 35,975 457 64
2018-07-19 21:40:58 GMT 42.593620 10.505676 35,975 457 0
2018-07-19 21:40:54 GMT 42.590012 10.513541 36,000 457 128
2018-07-19 21:40:49 GMT 42.585068 10.523529 35,975 457 -64
2018-07-19 21:40:45 GMT 42.580261 10.533972 35,975 457 -64
2018-07-19 21:40:39 GMT 42.574581 10.545981 35,975 457 -64
2018-07-19 21:40:35 GMT 42.569962 10.555240 35,975 457 192
2018-07-19 21:40:29 GMT 42.564293 10.566740 35,975 457 -192
2018-07-19 21:40:24 GMT 42.559799 10.576026 35,975 457 0
2018-07-19 21:40:19 GMT 42.553822 10.588393 35,975 456 0
2018-07-19 21:40:13 GMT 42.548840 10.598677 36,000 457 -128
2018-07-19 21:40:08 GMT 42.543159 10.610366 35,975 457 0
2018-07-19 21:40:04 GMT 42.538551 10.620330 35,975 457 -64
2018-07-19 21:39:59 GMT 42.534592 10.628059 36,000 457 -256
2018-07-19 21:39:56 GMT 42.531662 10.634382 35,975 457 -192
2018-07-19 21:39:53 GMT 42.528763 10.640384 36,000 457 -128
2018-07-19 21:39:49 GMT 42.524120 10.650032 36,000 457 0
2018-07-19 21:39:46 GMT 42.521698 10.654822 36,000 457 -128
2018-07-19 21:39:42 GMT 42.516907 10.664416 36,000 458 0
2018-07-19 21:39:36 GMT 42.511925 10.675262 36,000 458 0
2018-07-19 21:39:33 GMT 42.507797 10.683517 36,000 458 -64
2018-07-19 21:39:27 GMT 42.502808 10.693817 36,000 458 -128
2018-07-19 21:39:23 GMT 42.498550 10.703056 36,000 458 192
2018-07-19 21:39:20 GMT 42.496281 10.707199 36,000 458 192
2018-07-19 21:39:15 GMT 42.490646 10.718696 36,000 458 0
2018-07-19 21:39:12 GMT 42.487389 10.725403 36,000 458 -320
2018-07-19 21:39:07 GMT 42.482407 10.735878 36,000 459 0
2018-07-19 21:39:04 GMT 42.479988 10.740477 36,000 459 64
2018-07-19 21:39:01 GMT 42.477055 10.746864 36,000 458 0
2018-07-19 21:38:55 GMT 42.471237 10.758681 36,000 459 -128
2018-07-19 21:38:51 GMT 42.466782 10.768100 36,000 459 0
2018-07-19 21:38:45 GMT 42.461288 10.779086 36,000 459 0
2018-07-19 21:38:41 GMT 42.456665 10.788894 36,000 459 64
2018-07-19 21:38:35 GMT 42.450485 10.801433 36,000 459 -128
2018-07-19 21:38:30 GMT 42.445816 10.811546 36,000 459 64
2018-07-19 21:38:24 GMT 42.440002 10.823031 36,000 459 -64
2018-07-19 21:38:20 GMT 42.435883 10.831646 36,000 459 256
2018-07-19 21:38:14 GMT 42.429340 10.845039 36,025 459 -128
2018-07-19 21:38:09 GMT 42.424530 10.854617 36,025 458 128
2018-07-19 21:38:04 GMT 42.419403 10.865291 36,000 459 192
2018-07-19 21:38:00 GMT 42.415466 10.873527 36,000 459 -192
2018-07-19 21:37:56 GMT 42.411835 10.881064 36,000 459 64
2018-07-19 21:37:53 GMT 42.408737 10.887264 36,000 459 64
2018-07-19 21:37:50 GMT 42.405502 10.894286 36,000 459 -128
2018-07-19 21:37:47 GMT 42.402924 10.899249 36,000 459 -128
2018-07-19 21:37:43 GMT 42.398476 10.908530 36,000 459 128
2018-07-19 21:37:37 GMT 42.392982 10.919516 36,000 459 64
2018-07-19 21:37:32 GMT 42.387627 10.930694 36,000 459 64
2018-07-19 21:37:27 GMT 42.382648 10.940786 36,000 459 -128
2018-07-19 21:37:22 GMT 42.377666 10.951134 36,000 459 -128
2018-07-19 21:37:18 GMT 42.372032 10.962631 36,000 459 128
2018-07-19 21:37:12 GMT 42.367035 10.972595 36,000 458 0
2018-07-19 21:37:07 GMT 42.362732 10.981646 36,000 458 128
2018-07-19 21:37:03 GMT 42.357788 10.991821 36,000 458 0
2018-07-19 21:36:59 GMT 42.354355 10.998688 36,000 458 0
2018-07-19 21:36:56 GMT 42.351784 11.003957 36,000 458 0
2018-07-19 21:36:53 GMT 42.347809 11.011734 36,000 458 0
2018-07-19 21:36:49 GMT 42.344879 11.018226 36,000 458 0
2018-07-19 21:36:46 GMT 42.340622 11.026466 35,975 458 0
2018-07-19 21:36:41 GMT 42.335953 11.036079 35,975 458 64
2018-07-19 21:36:37 GMT 42.331161 11.046370 35,975 458 0
2018-07-19 21:36:34 GMT 42.329453 11.049312 35,975 458 64
2018-07-19 21:36:31 GMT 42.325150 11.058051 35,975 457 64
2018-07-19 21:36:26 GMT 42.321213 11.066478 35,975 457 0
2018-07-19 21:36:23 GMT 42.317780 11.073532 35,975 457 128
2018-07-19 21:36:19 GMT 42.314667 11.079525 35,975 457 0
2018-07-19 21:36:16 GMT 42.311096 11.086890 35,975 457 -128
2018-07-19 21:36:13 GMT 42.308350 11.092758 35,975 456 128
2018-07-19 21:36:10 GMT 42.303696 11.101812 35,975 457 0
2018-07-19 21:36:06 GMT 42.300430 11.108551 35,975 456 0
2018-07-19 21:36:01 GMT 42.296154 11.117270 35,975 456 -64
2018-07-19 21:35:58 GMT 42.293221 11.123657 35,975 456 0
2018-07-19 21:35:53 GMT 42.287029 11.135666 35,975 456 -64
2018-07-19 21:35:49 GMT 42.282932 11.144225 35,975 456 -192
2018-07-19 21:35:44 GMT 42.279327 11.151435 35,975 457 64
2018-07-19 21:35:41 GMT 42.276581 11.156928 35,975 456 0
2018-07-19 21:35:38 GMT 42.273155 11.164345 35,975 457 -128
2018-07-19 21:35:34 GMT 42.269199 11.172393 35,975 457 0
2018-07-19 21:35:31 GMT 42.266453 11.178206 35,975 456 -192
2018-07-19 21:35:28 GMT 42.262848 11.185268 35,975 457 -128
2018-07-19 21:35:24 GMT 42.259422 11.192130 35,975 456 0
2018-07-19 21:35:21 GMT 42.255978 11.198965 35,975 456 0
2018-07-19 21:35:18 GMT 42.252396 11.206374 35,975 456 0
2018-07-19 21:35:14 GMT 42.248749 11.213608 35,975 456 -64
2018-07-19 21:35:10 GMT 42.243942 11.223907 35,975 456 -64
2018-07-19 21:35:07 GMT 42.241882 11.227840 35,975 456 -64
2018-07-19 21:35:03 GMT 42.237762 11.235893 35,975 456 -192
2018-07-19 21:35:00 GMT 42.234844 11.241760 35,975 456 -64
2018-07-19 21:34:56 GMT 42.231071 11.249297 35,975 457 128
2018-07-19 21:34:51 GMT 42.226604 11.258751 35,975 457 128
2018-07-19 21:34:48 GMT 42.223526 11.264544 35,975 457 -64
2018-07-19 21:34:45 GMT 42.220276 11.271411 35,975 457 -64
2018-07-19 21:34:41 GMT 42.216660 11.278839 36,000 457 64
2018-07-19 21:34:36 GMT 42.210159 11.291511 36,000 458 -128
2018-07-19 21:34:31 GMT 42.206177 11.299563 36,000 458 -64
2018-07-19 21:34:28 GMT 42.203110 11.305618 36,000 458 128
2018-07-19 21:34:25 GMT 42.199837 11.312660 36,000 458 0
2018-07-19 21:34:21 GMT 42.195553 11.320900 36,000 459 -64
2018-07-19 21:34:18 GMT 42.192295 11.327926 36,000 458 0
2018-07-19 21:34:13 GMT 42.186630 11.339077 36,000 458 128
2018-07-19 21:34:10 GMT 42.185406 11.341979 36,000 459 -64
2018-07-19 21:34:07 GMT 42.181824 11.349002 36,000 459 -128
2018-07-19 21:34:04 GMT 42.178886 11.354881 36,000 459 64
2018-07-19 21:34:01 GMT 42.176514 11.359991 36,000 459 0
2018-07-19 21:33:58 GMT 42.172531 11.367541 36,000 459 -64
2018-07-19 21:33:55 GMT 42.170151 11.373034 36,000 459 64
2018-07-19 21:33:52 GMT 42.166550 11.379920 36,000 459 -192
2018-07-19 21:33:49 GMT 42.164501 11.384072 36,000 460 0
2018-07-19 21:33:42 GMT 42.156590 11.400359 36,000 460 0
2018-07-19 21:33:39 GMT 42.154167 11.405150 36,000 460 192
2018-07-19 21:33:35 GMT 42.149189 11.415306 36,000 460 -128
2018-07-19 21:33:31 GMT 42.146118 11.421100 36,000 460 0
2018-07-19 21:33:28 GMT 42.143692 11.426281 36,000 460 0
2018-07-19 21:33:21 GMT 42.136002 11.442261 36,000 459 0
2018-07-19 21:33:18 GMT 42.132710 11.448393 36,000 459 64
2018-07-19 21:33:12 GMT 42.127213 11.460114 36,000 460 0
2018-07-19 21:33:08 GMT 42.123302 11.467810 36,000 459 0
2018-07-19 21:33:01 GMT 42.115219 11.484146 36,000 459 0
2018-07-19 21:32:58 GMT 42.112831 11.488953 36,000 459 0
2018-07-19 21:32:50 GMT 42.105244 11.504538 35,975 459 64
2018-07-19 21:32:47 GMT 42.102173 11.511050 35,975 459 -128
2018-07-19 21:32:40 GMT 42.094955 11.525297 35,975 459 0
2018-07-19 21:32:36 GMT 42.091694 11.532195 35,975 459 -128
2018-07-19 21:32:30 GMT 42.084152 11.547461 35,975 459 -64
2018-07-19 21:32:26 GMT 42.081207 11.553310 35,975 459 64
2018-07-19 21:32:19 GMT 42.074203 11.567542 35,975 459 0
2018-07-19 21:32:14 GMT 42.069901 11.576656 35,975 459 128
2018-07-19 21:32:09 GMT 42.064232 11.587957 35,975 459 -128
2018-07-19 21:32:03 GMT 42.058411 11.599455 35,975 459 -64
2018-07-19 21:31:58 GMT 42.053429 11.609802 35,975 459 0
2018-07-19 21:31:53 GMT 42.048935 11.618729 35,975 459 0
2018-07-19 21:31:48 GMT 42.043442 11.630027 35,975 458 -64
2018-07-19 21:31:43 GMT 42.038486 11.640142 35,975 459 0
2018-07-19 21:31:38 GMT 42.033318 11.650298 35,975 459 -64
2018-07-19 21:31:32 GMT 42.027824 11.661987 35,975 459 0
2018-07-19 21:31:28 GMT 42.023357 11.670738 35,975 459 -64
2018-07-19 21:31:21 GMT 42.017029 11.683273 35,975 459 -128
2018-07-19 21:31:18 GMT 42.013256 11.691305 35,975 459 -64
2018-07-19 21:31:11 GMT 42.007233 11.703498 35,975 458 -192
2018-07-19 21:31:07 GMT 42.002792 11.712237 35,975 459 0
2018-07-19 21:31:00 GMT 41.996262 11.725286 35,975 459 -128
2018-07-19 21:30:56 GMT 41.992306 11.733207 36,000 460 0
2018-07-19 21:30:50 GMT 41.985603 11.746620 35,975 459 0
2018-07-19 21:30:47 GMT 41.982330 11.753124 35,975 459 192
2018-07-19 21:30:39 GMT 41.975502 11.767507 35,975 460 128
2018-07-19 21:30:36 GMT 41.971710 11.774722 36,000 460 0
2018-07-19 21:30:32 GMT 41.968426 11.781623 36,000 460 -64
2018-07-19 21:30:29 GMT 41.964840 11.788841 36,000 460 64
2018-07-19 21:30:26 GMT 41.961769 11.794654 35,975 460 0
2018-07-19 21:30:23 GMT 41.958984 11.800003 36,000 460 128
2018-07-19 21:30:19 GMT 41.954727 11.809054 35,975 460 64
2018-07-19 21:30:16 GMT 41.951107 11.815924 35,975 460 -64
2018-07-19 21:30:13 GMT 41.948872 11.820906 35,975 460 64
2018-07-19 21:30:08 GMT 41.943741 11.831027 36,000 460 64
2018-07-19 21:30:05 GMT 41.940632 11.837258 36,000 460 -64
2018-07-19 21:30:02 GMT 41.937881 11.842575 36,000 460 -128
2018-07-19 21:29:58 GMT 41.933762 11.850815 35,975 460 -64
2018-07-19 21:29:55 GMT 41.930511 11.857307 36,000 460 0
2018-07-19 21:29:51 GMT 41.927086 11.864532 36,000 460 -384
2018-07-19 21:29:45 GMT 41.920197 11.878584 35,975 460 0
2018-07-19 21:29:40 GMT 41.916595 11.885459 35,975 460 64
2018-07-19 21:29:35 GMT 41.910782 11.896945 35,975 460 -64
2018-07-19 21:29:32 GMT 41.908001 11.902473 35,975 460 -128
2018-07-19 21:29:29 GMT 41.904922 11.908618 35,975 460 0
2018-07-19 21:29:25 GMT 41.901482 11.915823 35,975 460 -192
2018-07-19 21:29:22 GMT 41.897526 11.923424 35,975 460 128
2018-07-19 21:29:14 GMT 41.890358 11.938178 36,000 460 -64
2018-07-19 21:29:11 GMT 41.887436 11.943824 36,000 460 128
2018-07-19 21:29:04 GMT 41.879696 11.959257 35,975 459 -192
2018-07-19 21:29:01 GMT 41.876770 11.965110 35,975 460 0
2018-07-19 21:28:58 GMT 41.873692 11.971137 35,975 460 -64
2018-07-19 21:28:54 GMT 41.869923 11.978675 35,975 460 -64
2018-07-19 21:28:51 GMT 41.866470 11.985522 35,975 460 128
2018-07-19 21:28:47 GMT 41.862854 11.992763 35,975 459 -64
2018-07-19 21:28:43 GMT 41.858917 12.000628 35,975 459 0
2018-07-19 21:28:40 GMT 41.856171 12.006496 35,975 459 128
2018-07-19 21:28:33 GMT 41.848801 12.021103 35,975 459 64
2018-07-19 21:28:30 GMT 41.846054 12.026222 36,000 459 0
2018-07-19 21:28:25 GMT 41.840919 12.036864 36,000 458 0
2018-07-19 21:28:21 GMT 41.836761 12.044761 36,000 458 -64
2018-07-19 21:28:18 GMT 41.832169 12.054238 36,000 458 0
2018-07-19 21:28:13 GMT 41.828384 12.061615 36,000 457 -64
2018-07-19 21:28:10 GMT 41.825603 12.066885 36,000 457 -64
2018-07-19 21:28:06 GMT 41.821838 12.074786 36,000 457 -192
2018-07-19 21:28:01 GMT 41.817032 12.084087 36,000 457 0
2018-07-19 21:27:58 GMT 41.814102 12.089892 36,000 457 192
2018-07-19 21:27:55 GMT 41.811031 12.096267 36,000 457 192
2018-07-19 21:27:49 GMT 41.805027 12.108467 36,000 457 0
2018-07-19 21:27:45 GMT 41.801056 12.115860 36,000 457 128
2018-07-19 21:27:40 GMT 41.795929 12.126285 35,975 458 256
2018-07-19 21:27:35 GMT 41.788872 12.140531 35,950 459 128
2018-07-19 21:27:31 GMT 41.786819 12.144137 35,950 459 64
2018-07-19 21:27:28 GMT 41.784264 12.149665 35,950 460 64
2018-07-19 21:27:24 GMT 41.779633 12.158557 35,925 460 448
2018-07-19 21:27:21 GMT 41.777206 12.164050 35,900 460 576
2018-07-19 21:27:18 GMT 41.774460 12.169044 35,900 460 640
2018-07-19 21:27:14 GMT 41.769333 12.179156 35,850 459 448
2018-07-19 21:27:10 GMT 41.765690 12.186393 35,825 458 320
2018-07-19 21:27:07 GMT 41.762943 12.191694 35,800 458 384
2018-07-19 21:27:04 GMT 41.759537 12.198382 35,775 458 448
2018-07-19 21:26:58 GMT 41.754227 12.209244 35,725 457 704
2018-07-19 21:26:54 GMT 41.749908 12.217819 35,700 457 640
2018-07-19 21:26:50 GMT 41.745625 12.226186 35,650 457 768
2018-07-19 21:26:47 GMT 41.742691 12.232402 35,600 457 1152
2018-07-19 21:26:43 GMT 41.738434 12.240143 35,525 458 1536
2018-07-19 21:26:39 GMT 41.735504 12.246635 35,275 462 1856
2018-07-19 21:26:36 GMT 41.731194 12.254866 35,325 460 1664
2018-07-19 21:26:29 GMT 41.725021 12.266735 35,100 462 1600
2018-07-19 21:26:26 GMT 41.719894 12.276847 35,000 462 1856
2018-07-19 21:26:19 GMT 41.714390 12.288016 34,775 461 1600
2018-07-19 21:26:15 GMT 41.709923 12.296767 34,750 460 1792
2018-07-19 21:26:11 GMT 41.706150 12.304177 34,650 462 1472
2018-07-19 21:26:08 GMT 41.703918 12.308620 34,475 462 2304
2018-07-19 21:26:04 GMT 41.698242 12.319606 34,375 463 2112
2018-07-19 21:25:57 GMT 41.692245 12.331467 34,100 465 2240
2018-07-19 21:25:54 GMT 41.686737 12.342629 33,975 465 2112
2018-07-19 21:25:45 GMT 41.679382 12.356873 33,700 465 1856
2018-07-19 21:25:42 GMT 41.675938 12.363707 33,650 465 1408
2018-07-19 21:25:38 GMT 41.671143 12.373671 33,525 464 1600
2018-07-19 21:25:35 GMT 41.668022 12.379356 33,375 464 1536
2018-07-19 21:25:32 GMT 41.664413 12.386523 33,350 464 1600
2018-07-19 21:25:27 GMT 41.659645 12.396155 33,200 465 1728
2018-07-19 21:25:23 GMT 41.653641 12.408036 33,050 466 1664
2018-07-19 21:25:17 GMT 41.648300 12.417984 32,925 466 1472
2018-07-19 21:25:14 GMT 41.645874 12.423103 32,800 465 1216
2018-07-19 21:25:11 GMT 41.642441 12.429657 32,800 465 1216
2018-07-19 21:25:06 GMT 41.637131 12.440456 32,675 464 1152
2018-07-19 21:25:02 GMT 41.630447 12.453128 32,575 464 896
2018-07-19 21:24:54 GMT 41.623753 12.466225 32,475 463 640
2018-07-19 21:24:51 GMT 41.620495 12.473251 32,450 462 768
2018-07-19 21:24:47 GMT 41.615513 12.482513 32,400 462 384
2018-07-19 21:24:44 GMT 41.612766 12.488198 32,350 461 832
2018-07-19 21:24:40 GMT 41.607101 12.499008 32,300 461 1216
2018-07-19 21:24:34 GMT 41.601242 12.510494 32,175 462 1344
2018-07-19 21:24:31 GMT 41.599182 12.514614 32,025 463 1856
2018-07-19 21:24:28 GMT 41.595776 12.521156 32,025 463 1856
2018-07-19 21:24:22 GMT 41.589256 12.534698 31,775 465 2304
2018-07-19 21:24:19 GMT 41.585114 12.542427 31,550 468 2048
2018-07-19 21:24:14 GMT 41.581192 12.549820 31,325 468 2624
2018-07-19 21:24:11 GMT 41.576706 12.558746 31,400 468 2432
2018-07-19 21:24:08 GMT 41.572266 12.567337 31,225 468 2688
2018-07-19 21:24:02 GMT 41.567276 12.577286 31,050 470 2176
2018-07-19 21:23:59 GMT 41.563339 12.584839 30,325 468 1216
2018-07-19 21:23:53 GMT 41.555927 12.599402 30,725 468 1600
2018-07-19 21:23:48 GMT 41.551987 12.607498 30,500 468 1536
2018-07-19 21:23:45 GMT 41.546337 12.618117 30,500 468 1536
2018-07-19 21:23:41 GMT 41.543060 12.624664 30,425 468 1280
2018-07-19 21:23:38 GMT 41.540146 12.630126 30,350 468 960
2018-07-19 21:23:35 GMT 41.535873 12.639084 30,300 467 768
2018-07-19 21:23:32 GMT 41.533115 12.644242 30,275 467 704
2018-07-19 21:23:29 GMT 41.530014 12.650195 30,225 466 704
2018-07-19 21:23:26 GMT 41.524704 12.660495 30,175 465 832
2018-07-19 21:23:21 GMT 41.521271 12.667736 30,125 465 768
2018-07-19 21:23:18 GMT 41.517147 12.675284 30,075 465 768
2018-07-19 21:23:12 GMT 41.509094 12.691061 29,950 464 832
2018-07-19 21:23:07 GMT 41.504951 12.698982 29,900 464 832
2018-07-19 21:23:03 GMT 41.500854 12.706838 29,750 462 1024
2018-07-19 21:22:59 GMT 41.495682 12.717174 29,750 463 960
2018-07-19 21:22:56 GMT 41.492756 12.722679 29,700 462 1216
2018-07-19 21:22:48 GMT 41.484009 12.739646 29,525 462 1152
2018-07-19 21:22:45 GMT 41.480759 12.746201 29,500 462 1280
2018-07-19 21:22:41 GMT 41.474739 12.757682 29,375 462 1408
2018-07-19 21:22:38 GMT 41.472366 12.762472 29,300 462 1216
2018-07-19 21:22:35 GMT 41.469086 12.768673 29,275 461 1280
2018-07-19 21:22:32 GMT 41.465836 12.775040 29,200 461 1344
2018-07-19 21:22:28 GMT 41.460846 12.785152 29,075 460 1216
2018-07-19 21:22:25 GMT 41.457420 12.791855 29,050 460 1152
2018-07-19 21:22:20 GMT 41.451740 12.802841 28,950 459 1280
2018-07-19 21:22:15 GMT 41.447113 12.811432 28,850 458 896
2018-07-19 21:22:12 GMT 41.441593 12.822386 28,800 457 1088
2018-07-19 21:22:09 GMT 41.440063 12.825165 28,775 456 1088
2018-07-19 21:22:06 GMT 41.435963 12.833053 28,700 456 1216
2018-07-19 21:22:03 GMT 41.433353 12.838546 28,675 456 960
2018-07-19 21:21:59 GMT 41.428417 12.847808 28,600 455 1024
2018-07-19 21:21:55 GMT 41.423950 12.856367 28,525 455 1088
2018-07-19 21:21:52 GMT 41.421017 12.862244 28,475 454 1088
2018-07-19 21:21:49 GMT 41.417221 12.869609 28,400 454 1408
2018-07-19 21:21:45 GMT 41.413475 12.877318 28,325 454 1472
2018-07-19 21:21:42 GMT 41.410034 12.883530 28,275 454 1216
2018-07-19 21:21:39 GMT 41.405888 12.891562 28,200 454 1216
2018-07-19 21:21:35 GMT 41.401791 12.899291 28,100 453 1344
2018-07-19 21:21:32 GMT 41.398682 12.905814 28,075 452 1088
2018-07-19 21:21:27 GMT 41.393555 12.915427 28,000 451 960
2018-07-19 21:21:24 GMT 41.389618 12.923168 27,925 451 1152
2018-07-19 21:21:21 GMT 41.386688 12.929348 27,875 450 1088
2018-07-19 21:21:17 GMT 41.381699 12.938416 27,775 450 1280
2018-07-19 21:21:14 GMT 41.377911 12.946139 27,700 450 1536
2018-07-19 21:21:07 GMT 41.368645 12.963867 27,500 450 1280
2018-07-19 21:21:03 GMT 41.367096 12.967285 27,475 449 896
2018-07-19 21:21:00 GMT 41.364037 12.973293 27,425 448 1152
2018-07-19 21:20:57 GMT 41.360592 12.979473 27,375 448 1088
2018-07-19 21:20:53 GMT 41.355427 12.989398 27,300 446 1024
2018-07-19 21:20:48 GMT 41.349243 13.001770 27,200 445 1344
2018-07-19 21:20:43 GMT 41.344810 13.010185 27,075 446 1280
2018-07-19 21:20:39 GMT 41.340866 13.017578 27,050 445 1216
2018-07-19 21:20:36 GMT 41.337433 13.024414 26,975 444 1152
2018-07-19 21:20:32 GMT 41.332764 13.033020 26,875 444 1152
2018-07-19 21:20:27 GMT 41.327446 13.043518 26,775 443 1536
2018-07-19 21:20:21 GMT 41.320953 13.055847 26,650 442 1216
2018-07-19 21:20:16 GMT 41.315624 13.066302 26,550 441 1472
2018-07-19 21:20:11 GMT 41.310471 13.076477 26,450 440 1600
2018-07-19 21:20:06 GMT 41.304794 13.087097 26,300 440 1792
2018-07-19 21:20:00 GMT 41.299145 13.097888 26,125 440 1792
2018-07-19 21:19:56 GMT 41.294350 13.107189 26,000 439 1664
2018-07-19 21:19:51 GMT 41.288315 13.118835 25,850 439 1792
2018-07-19 21:19:45 GMT 41.282318 13.130371 25,675 438 1664
2018-07-19 21:19:40 GMT 41.274261 13.145630 25,500 437 1280
2018-07-19 21:19:34 GMT 41.271149 13.151489 25,450 436 1216
2018-07-19 21:19:30 GMT 41.266525 13.160400 25,350 434 1216
2018-07-19 21:19:27 GMT 41.263092 13.167114 25,300 433 960
2018-07-19 21:19:24 GMT 41.260162 13.172913 25,250 433 1216
2018-07-19 21:19:18 GMT 41.252266 13.188026 25,100 432 1088
2018-07-19 21:19:14 GMT 41.249191 13.193893 25,050 432 1216
2018-07-19 21:19:09 GMT 41.244049 13.203857 24,950 431 1280
2018-07-19 21:19:06 GMT 41.240440 13.211060 24,875 430 1216
2018-07-19 21:19:03 GMT 41.238190 13.214966 24,825 430 1536
2018-07-19 21:18:59 GMT 41.233383 13.224426 24,725 430 1408
2018-07-19 21:18:56 GMT 41.229084 13.232845 24,625 430 1664
2018-07-19 21:18:53 GMT 41.227219 13.236465 24,575 430 1408
2018-07-19 21:18:49 GMT 41.223076 13.244331 24,475 430 1280
2018-07-19 21:18:45 GMT 41.218964 13.252075 24,350 428 1280
2018-07-19 21:18:42 GMT 41.215714 13.258057 24,325 428 1536
2018-07-19 21:18:38 GMT 41.210403 13.268188 24,225 426 1152
2018-07-19 21:18:35 GMT 41.207794 13.273193 24,125 425 1152
2018-07-19 21:18:32 GMT 41.205414 13.278137 24,100 425 1152
2018-07-19 21:18:28 GMT 41.200966 13.286715 24,000 425 1408
2018-07-19 21:18:24 GMT 41.197357 13.293274 23,900 425 1408
2018-07-19 21:18:21 GMT 41.193748 13.299949 23,850 425 1536
2018-07-19 21:18:18 GMT 41.190491 13.306641 23,775 424 1280
2018-07-19 21:18:14 GMT 41.186722 13.313495 23,625 422 1280
2018-07-19 21:18:11 GMT 41.183258 13.320557 23,625 422 1280
2018-07-19 21:18:08 GMT 41.180008 13.326233 23,550 422 1344
2018-07-19 21:18:03 GMT 41.175175 13.335655 23,450 421 1472
2018-07-19 21:18:00 GMT 41.172104 13.341335 23,375 421 1472
2018-07-19 21:17:57 GMT 41.169170 13.347327 23,300 421 1408
2018-07-19 21:17:53 GMT 41.165222 13.354736 22,750 420 1536
2018-07-19 21:17:49 GMT 41.161816 13.361560 23,100 420 1472
2018-07-19 21:17:46 GMT 41.158035 13.368286 23,000 420 1856
2018-07-19 21:17:43 GMT 41.155109 13.373919 22,925 420 1792
2018-07-19 21:17:38 GMT 41.149944 13.383720 22,775 419 1792
2018-07-19 21:17:35 GMT 41.147049 13.389221 22,675 419 1792
2018-07-19 21:17:31 GMT 41.142746 13.397949 22,525 419 1856
2018-07-19 21:17:26 GMT 41.136723 13.408813 22,375 418 1792
2018-07-19 21:17:22 GMT 41.132812 13.416866 22,250 417 1728
2018-07-19 21:17:15 GMT 41.125412 13.430786 22,075 416 1344
2018-07-19 21:17:10 GMT 41.121964 13.437134 22,000 414 1280
2018-07-19 21:17:07 GMT 41.118706 13.443271 21,925 414 1216
2018-07-19 21:17:04 GMT 41.114937 13.450512 21,850 413 1344
2018-07-19 21:17:01 GMT 41.112213 13.455811 21,775 412 1024
2018-07-19 21:16:54 GMT 41.104477 13.470947 21,625 410 1216
2018-07-19 21:16:50 GMT 41.101017 13.477103 21,550 409 1536
2018-07-19 21:16:46 GMT 41.097618 13.483783 21,475 410 1472
2018-07-19 21:16:42 GMT 41.093491 13.491699 21,350 410 1344
2018-07-19 21:16:39 GMT 41.091103 13.496517 21,300 410 1536
2018-07-19 21:16:34 GMT 41.085434 13.506958 21,100 409 1600
2018-07-19 21:16:31 GMT 41.083191 13.511597 21,075 408 1600
2018-07-19 21:16:28 GMT 41.079929 13.517428 21,000 408 1536
2018-07-19 21:16:24 GMT 41.075134 13.527229 20,850 407 1664
2018-07-19 21:16:21 GMT 41.072891 13.530823 20,750 406 1600
2018-07-19 21:16:17 GMT 41.069267 13.537903 20,700 406 1728
2018-07-19 21:16:13 GMT 41.064987 13.545955 20,500 405 2112
2018-07-19 21:16:10 GMT 41.062225 13.551636 20,475 405 1856
2018-07-19 21:16:07 GMT 41.059307 13.557441 20,375 405 1856
2018-07-19 21:16:03 GMT 41.055023 13.564994 20,250 404 1856
2018-07-19 21:16:00 GMT 41.052612 13.569641 20,175 403 1856
2018-07-19 21:15:56 GMT 41.048180 13.578040 20,025 402 1856
2018-07-19 21:15:53 GMT 41.045242 13.583740 19,800 402 1984
2018-07-19 21:15:50 GMT 41.042862 13.588684 19,825 402 1792
2018-07-19 21:15:44 GMT 41.036682 13.600342 19,650 397 2304
2018-07-19 21:15:40 GMT 41.032726 13.607566 19,525 397 1792
2018-07-19 21:15:31 GMT 41.024826 13.622314 19,275 397 2304
2018-07-19 21:15:28 GMT 41.020340 13.631104 19,075 398 2496
2018-07-19 21:15:24 GMT 41.017082 13.636780 18,950 397 2496
2018-07-19 21:15:21 GMT 41.014523 13.641586 18,825 398 2624
2018-07-19 21:15:18 GMT 41.010590 13.649292 18,675 396 2432
2018-07-19 21:15:14 GMT 41.007980 13.654114 18,550 395 2240
2018-07-19 21:15:10 GMT 41.004234 13.661124 18,425 396 2240
2018-07-19 21:15:07 GMT 41.000465 13.668490 18,275 394 1920
2018-07-19 21:15:03 GMT 40.998043 13.674171 18,200 393 1728
2018-07-19 21:14:59 GMT 40.994614 13.683472 18,050 391 1664
2018-07-19 21:14:53 GMT 40.991180 13.695984 17,875 390 1856
2018-07-19 21:14:50 GMT 40.989616 13.702823 17,775 389 2048
2018-07-19 21:14:46 GMT 40.986546 13.716243 17,575 388 2112
2018-07-19 21:14:38 GMT 40.984123 13.727042 17,400 387 2176
2018-07-19 21:14:33 GMT 40.981377 13.740089 17,175 387 1984
2018-07-19 21:14:28 GMT 40.979507 13.748840 17,025 385 1728
2018-07-19 21:14:23 GMT 40.977097 13.759128 16,900 382 1472
2018-07-19 21:14:20 GMT 40.975708 13.765991 16,825 381 1344
2018-07-19 21:14:17 GMT 40.974537 13.771674 16,750 379 1408
2018-07-19 21:14:10 GMT 40.971085 13.786621 16,575 376 1728
2018-07-19 21:14:06 GMT 40.969368 13.794146 16,475 374 1920
2018-07-19 21:13:59 GMT 40.966095 13.808228 16,200 373 2624
2018-07-19 21:13:55 GMT 40.964249 13.816681 16,025 373 3008
2018-07-19 21:13:50 GMT 40.961472 13.828186 15,600 377 3392
2018-07-19 21:13:45 GMT 40.959404 13.837405 15,475 378 3520
2018-07-19 21:13:38 GMT 40.955795 13.853577 15,050 380 3200
2018-07-19 21:13:34 GMT 40.954102 13.860779 14,875 378 2560
2018-07-19 21:13:28 GMT 40.951172 13.874329 14,625 371 2048
2018-07-19 21:13:24 GMT 40.949295 13.881897 14,525 369 1792
2018-07-19 21:13:18 GMT 40.946556 13.893585 14,375 363 1344
2018-07-19 21:13:14 GMT 40.944489 13.903198 14,275 359 1408
2018-07-19 21:13:04 GMT 40.940002 13.922913 14,000 353 2944
2018-07-19 21:12:55 GMT 40.935711 13.942150 13,425 353 2880
2018-07-19 21:12:52 GMT 40.934361 13.948142 13,425 353 2880
2018-07-19 21:12:46 GMT 40.931938 13.958255 13,200 348 2304
2018-07-19 21:12:43 GMT 40.930252 13.966003 13,050 344 2176
2018-07-19 21:12:34 GMT 40.925583 13.985901 12,675 344 2176
2018-07-19 21:12:23 GMT 40.921654 14.003573 12,350 341 2304
2018-07-19 21:12:16 GMT 40.918068 14.018555 12,000 342 2816
2018-07-19 21:12:13 GMT 40.916519 14.025574 11,825 342 3008
2018-07-19 21:12:02 GMT 40.911346 14.046692 11,300 343 2496
2018-07-19 21:11:52 GMT 40.906906 14.064514 10,950 335 1856
2018-07-19 21:11:42 GMT 40.902611 14.083099 10,725 321 1408
2018-07-19 21:11:31 GMT 40.898117 14.102966 10,450 306 1792
2018-07-19 21:11:20 GMT 40.894001 14.123050 10,000 295 2368
2018-07-19 21:11:10 GMT 40.892487 14.139709 9,625 291 2176
2018-07-19 21:11:00 GMT 40.891953 14.158069 9,325 281 1344
2018-07-19 21:10:49 GMT 40.891624 14.176296 9,075 264 2112
2018-07-19 21:10:41 GMT 40.891254 14.189842 8,750 262 2816
2018-07-19 21:10:38 GMT 40.891113 14.193462 8,625 261 3136
2018-07-19 21:10:31 GMT 40.890747 14.205139 8,250 260 3200
2018-07-19 21:10:26 GMT 40.890427 14.213379 7,975 260 3392
2018-07-19 21:10:20 GMT 40.890228 14.221802 7,675 258 3200
2018-07-19 21:10:10 GMT 40.891800 14.237915 7,200 252 2624
2018-07-19 21:10:07 GMT 40.892807 14.241699 7,100 249 2560
2018-07-19 21:09:59 GMT 40.897118 14.251827 6,750 246 3008
2018-07-19 21:09:55 GMT 40.900543 14.257141 6,500 247 3776
2018-07-19 21:09:49 GMT 40.904663 14.263489 6,150 249 3968
2018-07-19 21:09:36 GMT 40.915459 14.279105 5,200 259 3840
2018-07-19 21:09:29 GMT 40.921139 14.287532 4,800 259 3072
2018-07-19 21:09:18 GMT 40.929192 14.299892 4,325 252 2176
2018-07-19 21:09:15 GMT 40.931427 14.303825 4,225 247 1792
2018-07-19 21:09:08 GMT 40.936085 14.312252 4,025 239 1216
2018-07-19 21:08:58 GMT 40.941238 14.325134 3,925 220 640
2018-07-19 21:08:47 GMT 40.943619 14.338684 3,775 205 896
2018-07-19 21:08:35 GMT 40.940689 14.351746 3,625 189 384
2018-07-19 21:08:26 GMT 40.935711 14.357758 3,550 176 768
2018-07-19 21:08:19 GMT 40.930389 14.359985 3,450 167 1024

Making use of Plane Finder data

You are free to use the raw flight data, aircraft information and images provided in this report for your own purposes provided the data is correctly attributed to Plane Finder. We ask that you please credit Plane Finder and link to planefinder.net in close proximity to the content.

Optionally one of the following logos (no smaller then 150x24px) can be used and must link to planefinder.net

Embedding the Plane Finder map

You are welcome to embed the Plane Finder playback map on your website to offer visitors a more interactive experience. We suggest using the following HTML code:

<iframe src="//planefinder.net/data/report/BA2605-G-GATR-7700-squawk-2018-07-19/map" width="800" height="600" seamless="seamless"></iframe>

Where our data comes from

Plane Finder has a global network of data feeds and antenna radars that receive data broadcast directly from aircraft. The primary technologies used are ADS-B and MLAT. We also show feeds from the FAA and a FLARM glider feed.

Click here to find out more about the Plane Finder network.

How we collect our data